tititudorancea.com
Station Historical Data
Daily Summary for March 14, 2019 Units:  Both    English   Metric
« Previous Day
Next Day »
Daily Weekly Monthly Yearly Custom
  High: Low: Average:
Temperature: TemperatureF °F /  -17.8 °C 43.7 °F /  6.5 °C 56.2 °F /  13.4 °C
Dew Point: DewpointF °F /  -17.8 °C 39.7 °F /  4.3 °C 42.8 °F /  6 °C
Humidity: Humidity % 30 % 64 %
Wind Speed: WindSpeedMPH mph /  0 km/h - 5.6 mph /  9 km/h
Wind Gust: WindSpeedGustMPH mph /  0 km/h - -
Wind:- - South
Pressure: PressureIn in /  0 hPa 29.91 in /  1012.8 hPa -
Precipitation: 0.00 in /  0 mm    
Historical Graphs
 
 
Ararat weather Find more about Weather in Ararat, AU


 



 


Tabular Data for March 14, 2019
Time Temperature Dew Point Pressure Wind Wind Speed Wind Gust Humidity Rainfall Rate (Hourly)
TemperatureF °F /  -17.8 °C DewpointF °F /  -17.8 °C PressureIn in /  0 hPa Calm     Humidity % HourlyPrecipIn in /  0 mm
00:00 54.1 °F /  12.3 °C 40.9 °F /  4.9 °C 30.05 in /  1017.5 hPa SSE 3.0 mph /  4.8 km/h 5.0 mph /  8 km/h 61 % 0.00 in /  0 mm
00:04 52.7 °F /  11.5 °C 42.8 °F /  6 °C 30.05 in /  1017.5 hPa SSE 5.0 mph /  8 km/h 3.5 mph /  5.6 km/h 69 % 0.00 in /  0 mm
00:05 54.0 °F /  12.2 °C 41.3 °F /  5.2 °C 30.06 in /  1017.8 hPa SSE 3.0 mph /  4.8 km/h 6.0 mph /  9.7 km/h 62 % 0.00 in /  0 mm
00:09 52.7 °F /  11.5 °C 42.8 °F /  6 °C 30.05 in /  1017.5 hPa SSE 3.5 mph /  5.6 km/h 1.8 mph /  2.9 km/h 69 % 0.00 in /  0 mm
00:10 54.0 °F /  12.2 °C 41.7 °F /  5.4 °C 30.06 in /  1017.8 hPa SSE 3.0 mph /  4.8 km/h 6.0 mph /  9.7 km/h 63 % 0.00 in /  0 mm
00:14 52.6 °F /  11.4 °C 42.7 °F /  5.9 °C 30.05 in /  1017.5 hPa SSE 3.5 mph /  5.6 km/h 0.7 mph /  1.1 km/h 69 % 0.00 in /  0 mm
00:15 54.0 °F /  12.2 °C 42.1 °F /  5.6 °C 30.06 in /  1017.8 hPa SSE 5.0 mph /  8 km/h 7.0 mph /  11.3 km/h 64 % 0.00 in /  0 mm
00:19 52.5 °F /  11.4 °C 42.6 °F /  5.9 °C 30.05 in /  1017.5 hPa SSE 5.0 mph /  8 km/h 1.5 mph /  2.4 km/h 69 % 0.00 in /  0 mm
00:20 54.1 °F /  12.3 °C 42.2 °F /  5.7 °C 30.06 in /  1017.8 hPa SSE 3.0 mph /  4.8 km/h 8.0 mph /  12.9 km/h 64 % 0.00 in /  0 mm
00:24 52.5 °F /  11.4 °C 42.6 °F /  5.9 °C 30.05 in /  1017.5 hPa SSE 6.9 mph /  11.1 km/h 5.0 mph /  8 km/h 69 % 0.00 in /  0 mm
00:25 54.1 °F /  12.3 °C 42.6 °F /  5.9 °C 30.06 in /  1017.8 hPa SSE 3.0 mph /  4.8 km/h 7.0 mph /  11.3 km/h 65 % 0.00 in /  0 mm
00:29 52.5 °F /  11.4 °C 43.0 °F /  6.1 °C 30.05 in /  1017.5 hPa SSE 4.0 mph /  6.4 km/h 3.4 mph /  5.5 km/h 70 % 0.00 in /  0 mm
00:30 54.1 °F /  12.3 °C 42.6 °F /  5.9 °C 30.06 in /  1017.8 hPa SSE 3.0 mph /  4.8 km/h 7.0 mph /  11.3 km/h 65 % 0.00 in /  0 mm
00:34 52.5 °F /  11.4 °C 43.0 °F /  6.1 °C 30.05 in /  1017.5 hPa SSE 5.8 mph /  9.3 km/h 5.5 mph /  8.9 km/h 70 % 0.00 in /  0 mm
00:35 54.1 °F /  12.3 °C 42.6 °F /  5.9 °C 30.06 in /  1017.8 hPa SSE 3.0 mph /  4.8 km/h 7.0 mph /  11.3 km/h 65 % 0.00 in /  0 mm
00:39 52.3 °F /  11.3 °C 42.8 °F /  6 °C 30.05 in /  1017.5 hPa SSE 6.9 mph /  11.1 km/h 4.2 mph /  6.8 km/h 70 % 0.00 in /  0 mm
00:40 54.1 °F /  12.3 °C 42.6 °F /  5.9 °C 30.06 in /  1017.8 hPa SSE 3.0 mph /  4.8 km/h 7.0 mph /  11.3 km/h 65 % 0.00 in /  0 mm
00:44 52.1 °F /  11.2 °C 42.6 °F /  5.9 °C 30.05 in /  1017.5 hPa SSE 5.8 mph /  9.3 km/h 4.4 mph /  7.1 km/h 70 % 0.00 in /  0 mm
00:45 54.1 °F /  12.3 °C 42.6 °F /  5.9 °C 30.05 in /  1017.5 hPa SSE 3.0 mph /  4.8 km/h 7.0 mph /  11.3 km/h 65 % 0.00 in /  0 mm
00:49 52.0 °F /  11.1 °C 42.9 °F /  6.1 °C 30.05 in /  1017.5 hPa SSE 5.8 mph /  9.3 km/h 4.9 mph /  7.9 km/h 71 % 0.00 in /  0 mm
00:50 54.0 °F /  12.2 °C 42.9 °F /  6.1 °C 30.05 in /  1017.5 hPa SSE 2.0 mph /  3.2 km/h 5.0 mph /  8 km/h 66 % 0.00 in /  0 mm
00:54 51.9 °F /  11.1 °C 42.8 °F /  6 °C 30.05 in /  1017.5 hPa SSE 6.9 mph /  11.1 km/h 3.8 mph /  6.1 km/h 71 % 0.00 in /  0 mm
00:55 53.9 °F /  12.2 °C 42.8 °F /  6 °C 30.05 in /  1017.5 hPa SSE 3.0 mph /  4.8 km/h 8.0 mph /  12.9 km/h 66 % 0.00 in /  0 mm
00:59 51.8 °F /  11 °C 42.7 °F /  5.9 °C 30.05 in /  1017.5 hPa SSE 5.8 mph /  9.3 km/h 4.6 mph /  7.4 km/h 71 % 0.00 in /  0 mm
01:00 53.8 °F /  12.1 °C 42.7 °F /  5.9 °C 30.04 in /  1017.2 hPa SSE 3.0 mph /  4.8 km/h 7.0 mph /  11.3 km/h 66 % 0.00 in /  0 mm
01:04 51.7 °F /  10.9 °C 42.6 °F /  5.9 °C 30.04 in /  1017.2 hPa SSE 6.0 mph /  9.7 km/h 4.3 mph /  6.9 km/h 71 % 0.00 in /  0 mm
01:05 53.6 °F /  12 °C 42.9 °F /  6.1 °C 30.04 in /  1017.2 hPa SSE 5.0 mph /  8 km/h 9.0 mph /  14.5 km/h 67 % 0.00 in /  0 mm
01:09 51.7 °F /  10.9 °C 43.0 °F /  6.1 °C 30.05 in /  1017.5 hPa SSE 8.1 mph /  13 km/h 3.6 mph /  5.8 km/h 72 % 0.00 in /  0 mm
01:10 53.5 °F /  11.9 °C 42.8 °F /  6 °C 30.04 in /  1017.2 hPa SSE 3.0 mph /  4.8 km/h 8.0 mph /  12.9 km/h 67 % 0.00 in /  0 mm
01:14 51.6 °F /  10.9 °C 42.9 °F /  6.1 °C 30.04 in /  1017.2 hPa SSE 3.5 mph /  5.6 km/h 1.5 mph /  2.4 km/h 72 % 0.00 in /  0 mm
01:15 53.4 °F /  11.9 °C 42.7 °F /  5.9 °C 30.04 in /  1017.2 hPa SSE 5.0 mph /  8 km/h 9.0 mph /  14.5 km/h 67 % 0.00 in /  0 mm
01:19 51.6 °F /  10.9 °C 42.9 °F /  6.1 °C 30.04 in /  1017.2 hPa SSE 3.5 mph /  5.6 km/h 0.4 mph /  0.6 km/h 72 % 0.00 in /  0 mm
01:20 53.2 °F /  11.8 °C 42.9 °F /  6.1 °C 30.04 in /  1017.2 hPa SSE 3.0 mph /  4.8 km/h 9.0 mph /  14.5 km/h 68 % 0.00 in /  0 mm
01:24 51.5 °F /  10.8 °C 42.8 °F /  6 °C 30.04 in /  1017.2 hPa SSE 4.6 mph /  7.4 km/h 2.0 mph /  3.2 km/h 72 % 0.00 in /  0 mm
01:25 53.0 °F /  11.7 °C 42.7 °F /  5.9 °C 30.04 in /  1017.2 hPa SSE 6.0 mph /  9.7 km/h 7.0 mph /  11.3 km/h 68 % 0.00 in /  0 mm
01:29 51.4 °F /  10.8 °C 42.7 °F /  5.9 °C 30.04 in /  1017.2 hPa SSE 1.2 mph /  1.9 km/h 0.6 mph /  1 km/h 72 % 0.00 in /  0 mm
01:30 52.9 °F /  11.6 °C 42.6 °F /  5.9 °C 30.04 in /  1017.2 hPa SSE 3.0 mph /  4.8 km/h 7.0 mph /  11.3 km/h 68 % 0.00 in /  0 mm
01:34 51.3 °F /  10.7 °C 42.6 °F /  5.9 °C 30.04 in /  1017.2 hPa SSE 4.0 mph /  6.4 km/h 1.3 mph /  2.1 km/h 72 % 0.00 in /  0 mm
01:35 52.9 °F /  11.6 °C 43.0 °F /  6.1 °C 30.04 in /  1017.2 hPa SSE 3.0 mph /  4.8 km/h 6.0 mph /  9.7 km/h 69 % 0.00 in /  0 mm
01:39 51.2 °F /  10.7 °C 42.8 °F /  6 °C 30.04 in /  1017.2 hPa SSE 4.6 mph /  7.4 km/h 2.1 mph /  3.4 km/h 73 % 0.00 in /  0 mm
01:40 52.8 °F /  11.6 °C 42.9 °F /  6.1 °C 30.04 in /  1017.2 hPa SSE 2.0 mph /  3.2 km/h 5.0 mph /  8 km/h 69 % 0.00 in /  0 mm
01:44 51.1 °F /  10.6 °C 42.7 °F /  5.9 °C 30.04 in /  1017.2 hPa SSE 5.8 mph /  9.3 km/h 4.1 mph /  6.6 km/h 73 % 0.00 in /  0 mm
01:45 52.8 °F /  11.6 °C 42.9 °F /  6.1 °C 30.05 in /  1017.5 hPa SSE 3.0 mph /  4.8 km/h 6.0 mph /  9.7 km/h 69 % 0.00 in /  0 mm
01:49 51.0 °F /  10.6 °C 42.6 °F /  5.9 °C 30.04 in /  1017.2 hPa SSE 3.5 mph /  5.6 km/h 2.7 mph /  4.3 km/h 73 % 0.00 in /  0 mm
01:50 52.8 °F /  11.6 °C 42.9 °F /  6.1 °C 30.05 in /  1017.5 hPa SSE 3.0 mph /  4.8 km/h 5.0 mph /  8 km/h 69 % 0.00 in /  0 mm
01:54 51.0 °F /  10.6 °C 43.0 °F /  6.1 °C 30.04 in /  1017.2 hPa SSE 5.0 mph /  8 km/h 3.8 mph /  6.1 km/h 74 % 0.00 in /  0 mm
01:55 52.8 °F /  11.6 °C 42.9 °F /  6.1 °C 30.05 in /  1017.5 hPa SSE 3.0 mph /  4.8 km/h 6.0 mph /  9.7 km/h 69 % 0.00 in /  0 mm
01:59 50.9 °F /  10.5 °C 42.9 °F /  6.1 °C 30.04 in /  1017.2 hPa SSE 3.5 mph /  5.6 km/h 2.9 mph /  4.7 km/h 74 % 0.00 in /  0 mm
02:00 52.8 °F /  11.6 °C 42.9 °F /  6.1 °C 30.05 in /  1017.5 hPa SSE 6.0 mph /  9.7 km/h 8.0 mph /  12.9 km/h 69 % 0.00 in /  0 mm
02:04 50.9 °F /  10.5 °C 42.9 °F /  6.1 °C 30.04 in /  1017.2 hPa SSE 5.8 mph /  9.3 km/h 5.0 mph /  8 km/h 74 % 0.00 in /  0 mm
02:05 52.8 °F /  11.6 °C 42.9 °F /  6.1 °C 30.05 in /  1017.5 hPa SSE 5.0 mph /  8 km/h 7.0 mph /  11.3 km/h 69 % 0.00 in /  0 mm
02:09 50.9 °F /  10.5 °C 42.9 °F /  6.1 °C 30.04 in /  1017.2 hPa SSE 6.0 mph /  9.7 km/h 4.4 mph /  7.1 km/h 74 % 0.00 in /  0 mm
02:10 52.7 °F /  11.5 °C 42.8 °F /  6 °C 30.05 in /  1017.5 hPa SSE 1.0 mph /  1.6 km/h 7.0 mph /  11.3 km/h 69 % 0.00 in /  0 mm
02:14 51.0 °F /  10.6 °C 43.0 °F /  6.1 °C 30.04 in /  1017.2 hPa SSE 8.1 mph /  13 km/h 2.6 mph /  4.2 km/h 74 % 0.00 in /  0 mm
02:15 52.7 °F /  11.5 °C 42.8 °F /  6 °C 30.05 in /  1017.5 hPa SSE 3.0 mph /  4.8 km/h 7.0 mph /  11.3 km/h 69 % 0.00 in /  0 mm
02:19 51.0 °F /  10.6 °C 43.0 °F /  6.1 °C 30.04 in /  1017.2 hPa SSE 4.6 mph /  7.4 km/h 2.0 mph /  3.2 km/h 74 % 0.00 in /  0 mm
02:20 52.6 °F /  11.4 °C 42.7 °F /  5.9 °C 30.05 in /  1017.5 hPa SSE 5.0 mph /  8 km/h 6.0 mph /  9.7 km/h 69 % 0.00 in /  0 mm
02:24 51.0 °F /  10.6 °C 43.0 °F /  6.1 °C 30.04 in /  1017.2 hPa SSE 4.0 mph /  6.4 km/h 3.6 mph /  5.8 km/h 74 % 0.00 in /  0 mm
02:25 52.5 °F /  11.4 °C 42.6 °F /  5.9 °C 30.05 in /  1017.5 hPa SSE 1.0 mph /  1.6 km/h 5.0 mph /  8 km/h 69 % 0.00 in /  0 mm
02:29 51.1 °F /  10.6 °C 43.1 °F /  6.2 °C 30.03 in /  1016.8 hPa SSE 4.0 mph /  6.4 km/h 2.7 mph /  4.3 km/h 74 % 0.00 in /  0 mm
02:30 52.5 °F /  11.4 °C 42.6 °F /  5.9 °C 30.05 in /  1017.5 hPa SSE 5.0 mph /  8 km/h 7.0 mph /  11.3 km/h 69 % 0.00 in /  0 mm
02:34 51.1 °F /  10.6 °C 43.1 °F /  6.2 °C 30.03 in /  1016.8 hPa SSE 5.8 mph /  9.3 km/h 2.3 mph /  3.7 km/h 74 % 0.00 in /  0 mm
02:35 52.5 °F /  11.4 °C 43.0 °F /  6.1 °C 30.05 in /  1017.5 hPa SSE 2.0 mph /  3.2 km/h 6.0 mph /  9.7 km/h 70 % 0.00 in /  0 mm
02:39 51.1 °F /  10.6 °C 43.1 °F /  6.2 °C 30.03 in /  1016.8 hPa SSE 3.5 mph /  5.6 km/h 2.4 mph /  3.9 km/h 74 % 0.00 in /  0 mm
02:40 52.4 °F /  11.3 °C 42.9 °F /  6.1 °C 30.05 in /  1017.5 hPa SSE 5.0 mph /  8 km/h 7.0 mph /  11.3 km/h 70 % 0.00 in /  0 mm
02:44 51.1 °F /  10.6 °C 43.1 °F /  6.2 °C 30.03 in /  1016.8 hPa SSE 2.3 mph /  3.7 km/h 1.3 mph /  2.1 km/h 74 % 0.00 in /  0 mm
02:45 52.2 °F /  11.2 °C 42.7 °F /  5.9 °C 30.05 in /  1017.5 hPa SSE 5.0 mph /  8 km/h 7.0 mph /  11.3 km/h 70 % 0.00 in /  0 mm
02:49 51.1 °F /  10.6 °C 43.4 °F /  6.3 °C 30.03 in /  1016.8 hPa SSE 5.8 mph /  9.3 km/h 3.4 mph /  5.5 km/h 75 % 0.00 in /  0 mm
02:50 52.1 °F /  11.2 °C 42.6 °F /  5.9 °C 30.05 in /  1017.5 hPa SSE 3.0 mph /  4.8 km/h 7.0 mph /  11.3 km/h 70 % 0.00 in /  0 mm
02:54 51.1 °F /  10.6 °C 43.4 °F /  6.3 °C 30.03 in /  1016.8 hPa SSE 4.6 mph /  7.4 km/h 3.8 mph /  6.1 km/h 75 % 0.00 in /  0 mm
02:55 52.0 °F /  11.1 °C 42.9 °F /  6.1 °C 30.05 in /  1017.5 hPa SSE 5.0 mph /  8 km/h 7.0 mph /  11.3 km/h 71 % 0.00 in /  0 mm
02:59 51.1 °F /  10.6 °C 43.1 °F /  6.2 °C 30.02 in /  1016.5 hPa SSE 5.0 mph /  8 km/h 4.2 mph /  6.8 km/h 74 % 0.00 in /  0 mm
03:00 51.9 °F /  11.1 °C 42.8 °F /  6 °C 30.05 in /  1017.5 hPa SSE 3.0 mph /  4.8 km/h 8.0 mph /  12.9 km/h 71 % 0.00 in /  0 mm
03:04 51.1 °F /  10.6 °C 43.1 °F /  6.2 °C 30.02 in /  1016.5 hPa SSE 5.0 mph /  8 km/h 3.7 mph /  6 km/h 74 % 0.00 in /  0 mm
03:05 51.8 °F /  11 °C 42.7 °F /  5.9 °C 30.05 in /  1017.5 hPa SSE 3.0 mph /  4.8 km/h 7.0 mph /  11.3 km/h 71 % 0.00 in /  0 mm
03:09 51.0 °F /  10.6 °C 43.4 °F /  6.3 °C 30.02 in /  1016.5 hPa SSE 3.5 mph /  5.6 km/h 2.7 mph /  4.3 km/h 75 % 0.00 in /  0 mm
03:10 51.7 °F /  10.9 °C 42.6 °F /  5.9 °C 30.04 in /  1017.2 hPa SSE 6.0 mph /  9.7 km/h 8.0 mph /  12.9 km/h 71 % 0.00 in /  0 mm
03:14 50.9 °F /  10.5 °C 43.3 °F /  6.3 °C 30.02 in /  1016.5 hPa SSE 4.6 mph /  7.4 km/h 3.5 mph /  5.6 km/h 75 % 0.00 in /  0 mm
03:15 51.7 °F /  10.9 °C 43.0 °F /  6.1 °C 30.04 in /  1017.2 hPa SSE 5.0 mph /  8 km/h 8.0 mph /  12.9 km/h 72 % 0.00 in /  0 mm
03:19 50.9 °F /  10.5 °C 43.3 °F /  6.3 °C 30.02 in /  1016.5 hPa SSE 4.6 mph /  7.4 km/h 3.5 mph /  5.6 km/h 75 % 0.00 in /  0 mm
03:20 51.6 °F /  10.9 °C 42.9 °F /  6.1 °C 30.04 in /  1017.2 hPa SSE 1.0 mph /  1.6 km/h 6.0 mph /  9.7 km/h 72 % 0.00 in /  0 mm
03:24 50.8 °F /  10.4 °C 43.2 °F /  6.2 °C 30.02 in /  1016.5 hPa SSE 4.0 mph /  6.4 km/h 2.6 mph /  4.2 km/h 75 % 0.00 in /  0 mm
03:25 51.6 °F /  10.9 °C 42.9 °F /  6.1 °C 30.04 in /  1017.2 hPa SSE 1.0 mph /  1.6 km/h 5.0 mph /  8 km/h 72 % 0.00 in /  0 mm
03:29 50.7 °F /  10.4 °C 43.1 °F /  6.2 °C 30.01 in /  1016.1 hPa SSE 5.0 mph /  8 km/h 3.1 mph /  5 km/h 75 % 0.00 in /  0 mm
03:30 51.4 °F /  10.8 °C 42.7 °F /  5.9 °C 30.04 in /  1017.2 hPa SSE 2.0 mph /  3.2 km/h 5.0 mph /  8 km/h 72 % 0.00 in /  0 mm
03:34 50.6 °F /  10.3 °C 43.0 °F /  6.1 °C 30.01 in /  1016.1 hPa SSE 6.0 mph /  9.7 km/h 3.3 mph /  5.3 km/h 75 % 0.00 in /  0 mm
03:35 51.3 °F /  10.7 °C 42.9 °F /  6.1 °C 30.04 in /  1017.2 hPa SSE 2.0 mph /  3.2 km/h 4.0 mph /  6.4 km/h 73 % 0.00 in /  0 mm
03:39 50.5 °F /  10.3 °C 42.9 °F /  6.1 °C 30.01 in /  1016.1 hPa SSE 5.8 mph /  9.3 km/h 3.7 mph /  6 km/h 75 % 0.00 in /  0 mm
03:40 51.3 °F /  10.7 °C 42.9 °F /  6.1 °C 30.04 in /  1017.2 hPa SSE 3.0 mph /  4.8 km/h 5.0 mph /  8 km/h 73 % 0.00 in /  0 mm
03:44 50.5 °F /  10.3 °C 42.9 °F /  6.1 °C 30.01 in /  1016.1 hPa SSE 4.6 mph /  7.4 km/h 2.6 mph /  4.2 km/h 75 % 0.00 in /  0 mm
03:45 51.2 °F /  10.7 °C 42.8 °F /  6 °C 30.04 in /  1017.2 hPa SSE 3.0 mph /  4.8 km/h 5.0 mph /  8 km/h 73 % 0.00 in /  0 mm
03:49 50.4 °F /  10.2 °C 43.1 °F /  6.2 °C 30.01 in /  1016.1 hPa SSE 3.5 mph /  5.6 km/h 3.6 mph /  5.8 km/h 76 % 0.00 in /  0 mm
03:50 51.1 °F /  10.6 °C 42.7 °F /  5.9 °C 30.04 in /  1017.2 hPa SSE 3.0 mph /  4.8 km/h 7.0 mph /  11.3 km/h 73 % 0.00 in /  0 mm
03:54 50.2 °F /  10.1 °C 42.9 °F /  6.1 °C 30.01 in /  1016.1 hPa SSE 4.6 mph /  7.4 km/h 2.8 mph /  4.5 km/h 76 % 0.00 in /  0 mm
03:55 51.0 °F /  10.6 °C 42.6 °F /  5.9 °C 30.04 in /  1017.2 hPa SSE 2.0 mph /  3.2 km/h 5.0 mph /  8 km/h 73 % 0.00 in /  0 mm
03:59 50.1 °F /  10.1 °C 42.8 °F /  6 °C 30.01 in /  1016.1 hPa SSE 3.5 mph /  5.6 km/h 2.3 mph /  3.7 km/h 76 % 0.00 in /  0 mm
04:00 51.0 °F /  10.6 °C 43.0 °F /  6.1 °C 30.04 in /  1017.2 hPa SSE 3.0 mph /  4.8 km/h 5.0 mph /  8 km/h 74 % 0.00 in /  0 mm
04:04 50.0 °F /  10 °C 42.7 °F /  5.9 °C 30.01 in /  1016.1 hPa SSE 2.3 mph /  3.7 km/h 1.0 mph /  1.6 km/h 76 % 0.00 in /  0 mm
04:05 50.9 °F /  10.5 °C 42.9 °F /  6.1 °C 30.04 in /  1017.2 hPa SSE 3.0 mph /  4.8 km/h 5.0 mph /  8 km/h 74 % 0.00 in /  0 mm
04:09 49.9 °F /  9.9 °C 43.0 °F /  6.1 °C 30.01 in /  1016.1 hPa SSE 3.5 mph /  5.6 km/h 2.8 mph /  4.5 km/h 77 % 0.00 in /  0 mm
04:10 50.9 °F /  10.5 °C 42.9 °F /  6.1 °C 30.04 in /  1017.2 hPa SSE 3.0 mph /  4.8 km/h 7.0 mph /  11.3 km/h 74 % 0.00 in /  0 mm
04:14 49.8 °F /  9.9 °C 42.9 °F /  6.1 °C 30.01 in /  1016.1 hPa SSE 4.6 mph /  7.4 km/h 2.1 mph /  3.4 km/h 77 % 0.00 in /  0 mm
04:15 50.9 °F /  10.5 °C 42.9 °F /  6.1 °C 30.04 in /  1017.2 hPa SSE 3.0 mph /  4.8 km/h 7.0 mph /  11.3 km/h 74 % 0.00 in /  0 mm
04:19 49.7 °F /  9.8 °C 42.8 °F /  6 °C 30.01 in /  1016.1 hPa SSE 3.5 mph /  5.6 km/h 1.4 mph /  2.3 km/h 77 % 0.00 in /  0 mm
04:20 51.0 °F /  10.6 °C 43.0 °F /  6.1 °C 30.04 in /  1017.2 hPa SSE 3.0 mph /  4.8 km/h 8.0 mph /  12.9 km/h 74 % 0.00 in /  0 mm
04:24 49.6 °F /  9.8 °C 42.7 °F /  5.9 °C 30.00 in /  1015.8 hPa SSE 3.5 mph /  5.6 km/h 1.0 mph /  1.6 km/h 77 % 0.00 in /  0 mm
04:25 51.0 °F /  10.6 °C 43.0 °F /  6.1 °C 30.03 in /  1016.8 hPa SSE 3.0 mph /  4.8 km/h 7.0 mph /  11.3 km/h 74 % 0.00 in /  0 mm
04:29 49.4 °F /  9.7 °C 42.8 °F /  6 °C 30.01 in /  1016.1 hPa SSE 3.5 mph /  5.6 km/h 2.2 mph /  3.5 km/h 78 % 0.00 in /  0 mm
04:30 51.0 °F /  10.6 °C 43.0 °F /  6.1 °C 30.04 in /  1017.2 hPa SSE 3.0 mph /  4.8 km/h 5.0 mph /  8 km/h 74 % 0.00 in /  0 mm
04:34 49.1 °F /  9.5 °C 42.5 °F /  5.8 °C 30.00 in /  1015.8 hPa SSE 2.3 mph /  3.7 km/h 1.8 mph /  2.9 km/h 78 % 0.00 in /  0 mm
04:35 51.1 °F /  10.6 °C 43.1 °F /  6.2 °C 30.03 in /  1016.8 hPa SSE 3.0 mph /  4.8 km/h 5.0 mph /  8 km/h 74 % 0.00 in /  0 mm
04:39 49.0 °F /  9.4 °C 42.8 °F /  6 °C 30.00 in /  1015.8 hPa SSE 4.6 mph /  7.4 km/h 2.6 mph /  4.2 km/h 79 % 0.00 in /  0 mm
04:40 51.1 °F /  10.6 °C 43.1 °F /  6.2 °C 30.03 in /  1016.8 hPa SSE 1.0 mph /  1.6 km/h 6.0 mph /  9.7 km/h 74 % 0.00 in /  0 mm
04:44 48.9 °F /  9.4 °C 42.7 °F /  5.9 °C 30.00 in /  1015.8 hPa SSE 4.6 mph /  7.4 km/h 4.2 mph /  6.8 km/h 79 % 0.00 in /  0 mm
04:45 51.1 °F /  10.6 °C 43.1 °F /  6.2 °C 30.03 in /  1016.8 hPa SSE 1.0 mph /  1.6 km/h 4.0 mph /  6.4 km/h 74 % 0.00 in /  0 mm
04:49 48.9 °F /  9.4 °C 42.7 °F /  5.9 °C 30.00 in /  1015.8 hPa SSE 5.0 mph /  8 km/h 4.3 mph /  6.9 km/h 79 % 0.00 in /  0 mm
04:50 51.1 °F /  10.6 °C 43.1 °F /  6.2 °C 30.03 in /  1016.8 hPa SSE 3.0 mph /  4.8 km/h 6.0 mph /  9.7 km/h 74 % 0.00 in /  0 mm
04:54 48.9 °F /  9.4 °C 42.7 °F /  5.9 °C 29.99 in /  1015.5 hPa South 5.8 mph /  9.3 km/h 4.6 mph /  7.4 km/h 79 % 0.00 in /  0 mm
04:55 51.1 °F /  10.6 °C 43.4 °F /  6.3 °C 30.03 in /  1016.8 hPa SSE 3.0 mph /  4.8 km/h 6.0 mph /  9.7 km/h 75 % 0.00 in /  0 mm
04:59 48.8 °F /  9.3 °C 42.9 °F /  6.1 °C 29.99 in /  1015.5 hPa SSE 4.6 mph /  7.4 km/h 3.8 mph /  6.1 km/h 80 % 0.00 in /  0 mm
05:00 51.1 °F /  10.6 °C 43.4 °F /  6.3 °C 30.03 in /  1016.8 hPa SSE 3.0 mph /  4.8 km/h 6.0 mph /  9.7 km/h 75 % 0.00 in /  0 mm
05:04 48.7 °F /  9.3 °C 42.8 °F /  6 °C 29.99 in /  1015.5 hPa SSE 3.5 mph /  5.6 km/h 2.2 mph /  3.5 km/h 80 % 0.00 in /  0 mm
05:05 51.1 °F /  10.6 °C 43.4 °F /  6.3 °C 30.02 in /  1016.5 hPa SSE 3.0 mph /  4.8 km/h 6.0 mph /  9.7 km/h 75 % 0.00 in /  0 mm
05:09 48.6 °F /  9.2 °C 42.7 °F /  5.9 °C 29.99 in /  1015.5 hPa North 2.3 mph /  3.7 km/h 0.7 mph /  1.1 km/h 80 % 0.00 in /  0 mm
05:10 51.1 °F /  10.6 °C 43.1 °F /  6.2 °C 30.02 in /  1016.5 hPa SSE 3.0 mph /  4.8 km/h 6.0 mph /  9.7 km/h 74 % 0.00 in /  0 mm
05:14 48.5 °F /  9.2 °C 42.6 °F /  5.9 °C 29.99 in /  1015.5 hPa SSE 2.3 mph /  3.7 km/h 1.1 mph /  1.8 km/h 80 % 0.00 in /  0 mm
05:15 51.0 °F /  10.6 °C 43.4 °F /  6.3 °C 30.02 in /  1016.5 hPa SSE 5.0 mph /  8 km/h 6.0 mph /  9.7 km/h 75 % 0.00 in /  0 mm
05:19 48.2 °F /  9 °C 42.3 °F /  5.7 °C 29.99 in /  1015.5 hPa SSE 2.3 mph /  3.7 km/h 1.3 mph /  2.1 km/h 80 % 0.00 in /  0 mm
05:20 50.9 °F /  10.5 °C 43.3 °F /  6.3 °C 30.02 in /  1016.5 hPa SSE 2.0 mph /  3.2 km/h 6.0 mph /  9.7 km/h 75 % 0.00 in /  0 mm
05:24 48.0 °F /  8.9 °C 42.4 °F /  5.8 °C 29.99 in /  1015.5 hPa SSE 3.5 mph /  5.6 km/h 1.3 mph /  2.1 km/h 81 % 0.00 in /  0 mm
05:25 50.9 °F /  10.5 °C 43.3 °F /  6.3 °C 30.02 in /  1016.5 hPa SSE 2.0 mph /  3.2 km/h 5.0 mph /  8 km/h 75 % 0.00 in /  0 mm
05:29 47.8 °F /  8.8 °C 42.3 °F /  5.7 °C 29.99 in /  1015.5 hPa SSE 3.5 mph /  5.6 km/h 1.8 mph /  2.9 km/h 81 % 0.00 in /  0 mm
05:30 50.8 °F /  10.4 °C 43.2 °F /  6.2 °C 30.01 in /  1016.1 hPa SSE 3.0 mph /  4.8 km/h 5.0 mph /  8 km/h 75 % 0.00 in /  0 mm
05:34 47.6 °F /  8.7 °C 42.1 °F /  5.6 °C 29.99 in /  1015.5 hPa SSE 1.2 mph /  1.9 km/h   81 % 0.00 in /  0 mm
05:35 50.7 °F /  10.4 °C 43.1 °F /  6.2 °C 30.01 in /  1016.1 hPa SSE 3.0 mph /  4.8 km/h 6.0 mph /  9.7 km/h 75 % 0.00 in /  0 mm
05:39 47.2 °F /  8.4 °C 41.7 °F /  5.4 °C 29.99 in /  1015.5 hPa SSE 2.3 mph /  3.7 km/h 1.0 mph /  1.6 km/h 81 % 0.00 in /  0 mm
05:40 50.6 °F /  10.3 °C 43.0 °F /  6.1 °C 30.01 in /  1016.1 hPa SSE 3.0 mph /  4.8 km/h 6.0 mph /  9.7 km/h 75 % 0.00 in /  0 mm
05:44 47.0 °F /  8.3 °C 41.8 °F /  5.4 °C 29.99 in /  1015.5 hPa SSE 2.3 mph /  3.7 km/h 1.2 mph /  1.9 km/h 82 % 0.00 in /  0 mm
05:45 50.5 °F /  10.3 °C 42.9 °F /  6.1 °C 30.01 in /  1016.1 hPa SSE 3.0 mph /  4.8 km/h 6.0 mph /  9.7 km/h 75 % 0.00 in /  0 mm
05:49 46.9 °F /  8.3 °C 42.0 °F /  5.6 °C 29.99 in /  1015.5 hPa SSE 1.2 mph /  1.9 km/h 0.7 mph /  1.1 km/h 83 % 0.00 in /  0 mm
05:50 50.4 °F /  10.2 °C 42.8 °F /  6 °C 30.01 in /  1016.1 hPa SSE 3.0 mph /  4.8 km/h 5.0 mph /  8 km/h 75 % 0.00 in /  0 mm
05:54 46.7 °F /  8.2 °C 41.8 °F /  5.4 °C 29.99 in /  1015.5 hPa SSE 4.0 mph /  6.4 km/h 1.8 mph /  2.9 km/h 83 % 0.00 in /  0 mm
05:55 50.3 °F /  10.2 °C 43.0 °F /  6.1 °C 30.01 in /  1016.1 hPa SSE 1.0 mph /  1.6 km/h 4.0 mph /  6.4 km/h 76 % 0.00 in /  0 mm
05:59 46.5 °F /  8.1 °C 41.6 °F /  5.3 °C 29.98 in /  1015.1 hPa SSE 3.5 mph /  5.6 km/h 2.6 mph /  4.2 km/h 83 % 0.00 in /  0 mm
06:00 50.2 °F /  10.1 °C 42.9 °F /  6.1 °C 30.01 in /  1016.1 hPa SSE 3.0 mph /  4.8 km/h 5.0 mph /  8 km/h 76 % 0.00 in /  0 mm
06:04 46.1 °F /  7.8 °C 41.2 °F /  5.1 °C 29.98 in /  1015.1 hPa SSE 2.0 mph /  3.2 km/h 1.5 mph /  2.4 km/h 83 % 0.00 in /  0 mm
06:05 50.1 °F /  10.1 °C 42.8 °F /  6 °C 30.01 in /  1016.1 hPa SSE 2.0 mph /  3.2 km/h 5.0 mph /  8 km/h 76 % 0.00 in /  0 mm
06:09 45.8 °F /  7.7 °C 40.9 °F /  4.9 °C 29.99 in /  1015.5 hPa North 2.3 mph /  3.7 km/h 1.4 mph /  2.3 km/h 83 % 0.00 in /  0 mm
06:10 50.0 °F /  10 °C 42.7 °F /  5.9 °C 30.01 in /  1016.1 hPa Calm   4.0 mph /  6.4 km/h 76 % 0.00 in /  0 mm
06:14 45.6 °F /  7.6 °C 41.0 °F /  5 °C 29.99 in /  1015.5 hPa SSE 2.3 mph /  3.7 km/h 1.6 mph /  2.6 km/h 84 % 0.00 in /  0 mm
06:15 49.9 °F /  9.9 °C 43.0 °F /  6.1 °C 30.01 in /  1016.1 hPa SSE 2.0 mph /  3.2 km/h 4.0 mph /  6.4 km/h 77 % 0.00 in /  0 mm
06:19 45.3 °F /  7.4 °C 40.7 °F /  4.8 °C 29.99 in /  1015.5 hPa SSE 2.0 mph /  3.2 km/h 0.7 mph /  1.1 km/h 84 % 0.00 in /  0 mm
06:20 49.8 °F /  9.9 °C 42.9 °F /  6.1 °C 30.01 in /  1016.1 hPa SSE 1.0 mph /  1.6 km/h 5.0 mph /  8 km/h 77 % 0.00 in /  0 mm
06:24 45.0 °F /  7.2 °C 40.5 °F /  4.7 °C 29.99 in /  1015.5 hPa Calm     84 % 0.00 in /  0 mm
06:25 49.7 °F /  9.8 °C 42.8 °F /  6 °C 30.01 in /  1016.1 hPa SSE 1.0 mph /  1.6 km/h 4.0 mph /  6.4 km/h 77 % 0.00 in /  0 mm
06:29 44.8 °F /  7.1 °C 40.6 °F /  4.8 °C 29.98 in /  1015.1 hPa North 2.3 mph /  3.7 km/h 1.5 mph /  2.4 km/h 85 % 0.00 in /  0 mm
06:30 49.6 °F /  9.8 °C 42.7 °F /  5.9 °C 30.01 in /  1016.1 hPa SSE 2.0 mph /  3.2 km/h 4.0 mph /  6.4 km/h 77 % 0.00 in /  0 mm
06:34 44.6 °F /  7 °C 40.4 °F /  4.7 °C 29.98 in /  1015.1 hPa Calm     85 % 0.00 in /  0 mm
06:35 49.3 °F /  9.6 °C 42.7 °F /  5.9 °C 30.00 in /  1015.8 hPa SSE 2.0 mph /  3.2 km/h 4.0 mph /  6.4 km/h 78 % 0.00 in /  0 mm
06:39 44.4 °F /  6.9 °C 40.2 °F /  4.6 °C 29.99 in /  1015.5 hPa SSE 2.3 mph /  3.7 km/h 1.1 mph /  1.8 km/h 85 % 0.00 in /  0 mm
06:40 49.1 °F /  9.5 °C 42.5 °F /  5.8 °C 30.00 in /  1015.8 hPa SSE 3.0 mph /  4.8 km/h 4.0 mph /  6.4 km/h 78 % 0.00 in /  0 mm
06:44 44.2 °F /  6.8 °C 40.3 °F /  4.6 °C 29.99 in /  1015.5 hPa SSE 2.3 mph /  3.7 km/h 1.3 mph /  2.1 km/h 86 % 0.00 in /  0 mm
06:45 48.9 °F /  9.4 °C 42.7 °F /  5.9 °C 30.00 in /  1015.8 hPa SSE 3.0 mph /  4.8 km/h 5.0 mph /  8 km/h 79 % 0.00 in /  0 mm
06:49 44.1 °F /  6.7 °C 40.2 °F /  4.6 °C 29.99 in /  1015.5 hPa North 2.3 mph /  3.7 km/h 1.3 mph /  2.1 km/h 86 % 0.00 in /  0 mm
06:50 48.9 °F /  9.4 °C 42.7 °F /  5.9 °C 30.00 in /  1015.8 hPa SSE 3.0 mph /  4.8 km/h 5.0 mph /  8 km/h 79 % 0.00 in /  0 mm
06:54 43.9 °F /  6.6 °C 40.0 °F /  4.4 °C 29.99 in /  1015.5 hPa SSE 2.3 mph /  3.7 km/h 0.1 mph /  0.2 km/h 86 % 0.00 in /  0 mm
06:55 48.8 °F /  9.3 °C 42.6 °F /  5.9 °C 30.00 in /  1015.8 hPa SSE 5.0 mph /  8 km/h 5.0 mph /  8 km/h 79 % 0.00 in /  0 mm
06:59 43.7 °F /  6.5 °C 39.8 °F /  4.3 °C 29.99 in /  1015.5 hPa SSE 1.2 mph /  1.9 km/h 0.6 mph /  1 km/h 86 % 0.00 in /  0 mm
07:00 48.8 °F /  9.3 °C 42.9 °F /  6.1 °C 30.00 in /  1015.8 hPa SSE 3.0 mph /  4.8 km/h 6.0 mph /  9.7 km/h 80 % 0.00 in /  0 mm
07:04 43.9 °F /  6.6 °C 40.6 °F /  4.8 °C 30.00 in /  1015.8 hPa North 3.5 mph /  5.6 km/h 1.1 mph /  1.8 km/h 88 % 0.00 in /  0 mm
07:05 48.8 °F /  9.3 °C 42.9 °F /  6.1 °C 29.99 in /  1015.5 hPa SSE 3.0 mph /  4.8 km/h 6.0 mph /  9.7 km/h 80 % 0.00 in /  0 mm
07:09 44.0 °F /  6.7 °C 40.7 °F /  4.8 °C 30.00 in /  1015.8 hPa SSE 3.5 mph /  5.6 km/h 0.8 mph /  1.3 km/h 88 % 0.00 in /  0 mm
07:10 48.8 °F /  9.3 °C 42.9 °F /  6.1 °C 29.99 in /  1015.5 hPa SSE 3.0 mph /  4.8 km/h 5.0 mph /  8 km/h 80 % 0.00 in /  0 mm
07:14 44.0 °F /  6.7 °C 40.7 °F /  4.8 °C 30.00 in /  1015.8 hPa North 2.3 mph /  3.7 km/h   88 % 0.00 in /  0 mm
07:15 48.6 °F /  9.2 °C 42.7 °F /  5.9 °C 29.99 in /  1015.5 hPa Calm   4.0 mph /  6.4 km/h 80 % 0.00 in /  0 mm
07:19 44.1 °F /  6.7 °C 40.8 °F /  4.9 °C 30.00 in /  1015.8 hPa SSE 2.3 mph /  3.7 km/h 0.2 mph /  0.3 km/h 88 % 0.00 in /  0 mm
07:20 48.5 °F /  9.2 °C 42.6 °F /  5.9 °C 30.00 in /  1015.8 hPa SSE 1.0 mph /  1.6 km/h 2.0 mph /  3.2 km/h 80 % 0.00 in /  0 mm
07:24 44.3 °F /  6.8 °C 41.3 °F /  5.2 °C 30.00 in /  1015.8 hPa Calm     89 % 0.00 in /  0 mm
07:25 48.2 °F /  9 °C 42.3 °F /  5.7 °C 29.99 in /  1015.5 hPa SSE 1.0 mph /  1.6 km/h 4.0 mph /  6.4 km/h 80 % 0.00 in /  0 mm
07:29 44.6 °F /  7 °C 41.6 °F /  5.3 °C 30.00 in /  1015.8 hPa Calm     89 % 0.00 in /  0 mm
07:30 48.0 °F /  8.9 °C 42.4 °F /  5.8 °C 29.99 in /  1015.5 hPa SSE 1.0 mph /  1.6 km/h 4.0 mph /  6.4 km/h 81 % 0.00 in /  0 mm
07:34 44.5 °F /  6.9 °C 41.2 °F /  5.1 °C 30.00 in /  1015.8 hPa SSE 2.3 mph /  3.7 km/h   88 % 0.00 in /  0 mm
07:35 47.8 °F /  8.8 °C 42.3 °F /  5.7 °C 29.99 in /  1015.5 hPa SSE 2.0 mph /  3.2 km/h 4.0 mph /  6.4 km/h 81 % 0.00 in /  0 mm
07:39 44.6 °F /  7 °C 41.6 °F /  5.3 °C 30.01 in /  1016.1 hPa North 2.3 mph /  3.7 km/h 1.3 mph /  2.1 km/h 89 % 0.00 in /  0 mm
07:40 47.5 °F /  8.6 °C 42.0 °F /  5.6 °C 29.99 in /  1015.5 hPa Calm   2.0 mph /  3.2 km/h 81 % 0.00 in /  0 mm
07:44 44.8 °F /  7.1 °C 41.8 °F /  5.4 °C 30.01 in /  1016.1 hPa SSE 2.3 mph /  3.7 km/h 2.2 mph /  3.5 km/h 89 % 0.00 in /  0 mm
07:45 47.2 °F /  8.4 °C 41.7 °F /  5.4 °C 29.99 in /  1015.5 hPa SSE 2.0 mph /  3.2 km/h 4.0 mph /  6.4 km/h 81 % 0.00 in /  0 mm
07:49 45.2 °F /  7.3 °C 42.2 °F /  5.7 °C 30.01 in /  1016.1 hPa SSE 3.5 mph /  5.6 km/h 1.4 mph /  2.3 km/h 89 % 0.00 in /  0 mm
07:50 46.9 °F /  8.3 °C 41.7 °F /  5.4 °C 29.99 in /  1015.5 hPa SSE 1.0 mph /  1.6 km/h 2.0 mph /  3.2 km/h 82 % 0.00 in /  0 mm
07:54 45.5 °F /  7.5 °C 42.4 °F /  5.8 °C 30.01 in /  1016.1 hPa SSE 3.5 mph /  5.6 km/h 1.2 mph /  1.9 km/h 89 % 0.00 in /  0 mm
07:55 46.9 °F /  8.3 °C 42.0 °F /  5.6 °C 29.99 in /  1015.5 hPa Calm   1.0 mph /  1.6 km/h 83 % 0.00 in /  0 mm
07:59 45.9 °F /  7.7 °C 42.8 °F /  6 °C 30.01 in /  1016.1 hPa SSE 3.5 mph /  5.6 km/h 1.5 mph /  2.4 km/h 89 % 0.00 in /  0 mm
08:00 46.7 °F /  8.2 °C 41.8 °F /  5.4 °C 29.99 in /  1015.5 hPa SSE 2.0 mph /  3.2 km/h 4.0 mph /  6.4 km/h 83 % 0.00 in /  0 mm
08:04 46.5 °F /  8.1 °C 43.4 °F /  6.3 °C 30.02 in /  1016.5 hPa SSE 2.3 mph /  3.7 km/h 0.9 mph /  1.4 km/h 89 % 0.00 in /  0 mm
08:05 46.4 °F /  8 °C 41.5 °F /  5.3 °C 29.98 in /  1015.1 hPa SSE 1.0 mph /  1.6 km/h 4.0 mph /  6.4 km/h 83 % 0.00 in /  0 mm
08:09 46.9 °F /  8.3 °C 43.5 °F /  6.4 °C 30.01 in /  1016.1 hPa SSE 4.6 mph /  7.4 km/h 2.8 mph /  4.5 km/h 88 % 0.00 in /  0 mm
08:10 46.0 °F /  7.8 °C 41.1 °F /  5.1 °C 29.99 in /  1015.5 hPa SSE 2.0 mph /  3.2 km/h 4.0 mph /  6.4 km/h 83 % 0.00 in /  0 mm
08:14 47.5 °F /  8.6 °C 43.8 °F /  6.6 °C 30.01 in /  1016.1 hPa SSE 3.5 mph /  5.6 km/h 2.0 mph /  3.2 km/h 87 % 0.00 in /  0 mm
08:15 45.8 °F /  7.7 °C 41.2 °F /  5.1 °C 29.99 in /  1015.5 hPa Calm   2.0 mph /  3.2 km/h 84 % 0.00 in /  0 mm
08:19 48.2 °F /  9 °C 44.5 °F /  6.9 °C 30.01 in /  1016.1 hPa SSE 4.0 mph /  6.4 km/h 1.5 mph /  2.4 km/h 87 % 0.00 in /  0 mm
08:20 45.5 °F /  7.5 °C 40.9 °F /  4.9 °C 29.99 in /  1015.5 hPa SSE 3.0 mph /  4.8 km/h 4.0 mph /  6.4 km/h 84 % 0.00 in /  0 mm
08:24 48.8 °F /  9.3 °C 44.5 °F /  6.9 °C 30.01 in /  1016.1 hPa SSE 3.5 mph /  5.6 km/h 0.9 mph /  1.4 km/h 85 % 0.00 in /  0 mm
08:25 45.3 °F /  7.4 °C 40.7 °F /  4.8 °C 29.98 in /  1015.1 hPa Calm   4.0 mph /  6.4 km/h 84 % 0.00 in /  0 mm
08:29 49.6 °F /  9.8 °C 45.0 °F /  7.2 °C 30.01 in /  1016.1 hPa SSE 3.5 mph /  5.6 km/h 0.8 mph /  1.3 km/h 84 % 0.00 in /  0 mm
08:30 45.0 °F /  7.2 °C 40.5 °F /  4.7 °C 29.98 in /  1015.1 hPa SSE 1.0 mph /  1.6 km/h 2.0 mph /  3.2 km/h 84 % 0.00 in /  0 mm
08:34 50.3 °F /  10.2 °C 45.0 °F /  7.2 °C 30.01 in /  1016.1 hPa SSE 4.6 mph /  7.4 km/h 2.3 mph /  3.7 km/h 82 % 0.00 in /  0 mm
08:35 44.8 °F /  7.1 °C 40.6 °F /  4.8 °C 29.98 in /  1015.1 hPa SSE 1.0 mph /  1.6 km/h 2.0 mph /  3.2 km/h 85 % 0.00 in /  0 mm
08:39 50.9 °F /  10.5 °C 44.9 °F /  7.2 °C 30.01 in /  1016.1 hPa SSE 7.0 mph /  11.3 km/h 4.3 mph /  6.9 km/h 80 % 0.00 in /  0 mm
08:40 44.5 °F /  6.9 °C 40.3 °F /  4.6 °C 29.98 in /  1015.1 hPa Calm     85 % 0.00 in /  0 mm
08:42 51.1 °F /  10.6 °C 45.1 °F /  7.3 °C 30.01 in /  1016.1 hPa SSE 4.6 mph /  7.4 km/h 2.4 mph /  3.9 km/h 80 % 0.00 in /  0 mm
08:45 44.4 °F /  6.9 °C 40.2 °F /  4.6 °C 29.99 in /  1015.5 hPa Calm   2.0 mph /  3.2 km/h 85 % 0.00 in /  0 mm
08:50 44.2 °F /  6.8 °C 40.3 °F /  4.6 °C 29.99 in /  1015.5 hPa Calm   2.0 mph /  3.2 km/h 86 % 0.00 in /  0 mm
08:55 44.0 °F /  6.7 °C 40.1 °F /  4.5 °C 29.99 in /  1015.5 hPa SSE 1.0 mph /  1.6 km/h 2.0 mph /  3.2 km/h 86 % 0.00 in /  0 mm
09:00 43.9 °F /  6.6 °C 40.0 °F /  4.4 °C 29.99 in /  1015.5 hPa Calm   2.0 mph /  3.2 km/h 86 % 0.00 in /  0 mm
09:05 43.7 °F /  6.5 °C 40.1 °F /  4.5 °C 29.99 in /  1015.5 hPa SSE 1.0 mph /  1.6 km/h 4.0 mph /  6.4 km/h 87 % 0.00 in /  0 mm
09:10 43.9 °F /  6.6 °C 40.3 °F /  4.6 °C 30.00 in /  1015.8 hPa SSE 1.0 mph /  1.6 km/h 5.0 mph /  8 km/h 87 % 0.00 in /  0 mm
09:15 44.0 °F /  6.7 °C 40.7 °F /  4.8 °C 30.00 in /  1015.8 hPa Calm   4.0 mph /  6.4 km/h 88 % 0.00 in /  0 mm
09:20 44.1 °F /  6.7 °C 40.8 °F /  4.9 °C 30.00 in /  1015.8 hPa SSE 1.0 mph /  1.6 km/h 2.0 mph /  3.2 km/h 88 % 0.00 in /  0 mm
09:25 44.2 °F /  6.8 °C 40.9 °F /  4.9 °C 30.00 in /  1015.8 hPa Calm   2.0 mph /  3.2 km/h 88 % 0.00 in /  0 mm
09:30 44.4 °F /  6.9 °C 41.4 °F /  5.2 °C 30.00 in /  1015.8 hPa Calm     89 % 0.00 in /  0 mm
09:35 44.6 °F /  7 °C 41.6 °F /  5.3 °C 30.00 in /  1015.8 hPa Calm     89 % 0.00 in /  0 mm
09:40 44.5 °F /  6.9 °C 41.2 °F /  5.1 °C 30.01 in /  1016.1 hPa Calm   2.0 mph /  3.2 km/h 88 % 0.00 in /  0 mm
09:45 44.6 °F /  7 °C 41.6 °F /  5.3 °C 30.01 in /  1016.1 hPa SSE 1.0 mph /  1.6 km/h 2.0 mph /  3.2 km/h 89 % 0.00 in /  0 mm
09:50 44.9 °F /  7.2 °C 41.9 °F /  5.5 °C 30.01 in /  1016.1 hPa SSE 2.0 mph /  3.2 km/h 4.0 mph /  6.4 km/h 89 % 0.00 in /  0 mm
09:55 45.3 °F /  7.4 °C 42.2 °F /  5.7 °C 30.01 in /  1016.1 hPa Calm   4.0 mph /  6.4 km/h 89 % 0.00 in /  0 mm
10:00 45.6 °F /  7.6 °C 42.5 °F /  5.8 °C 30.01 in /  1016.1 hPa SSE 1.0 mph /  1.6 km/h 4.0 mph /  6.4 km/h 89 % 0.00 in /  0 mm
10:05 46.0 °F /  7.8 °C 42.9 °F /  6.1 °C 30.01 in /  1016.1 hPa SSE 1.0 mph /  1.6 km/h 4.0 mph /  6.4 km/h 89 % 0.00 in /  0 mm
10:10 46.6 °F /  8.1 °C 43.2 °F /  6.2 °C 30.01 in /  1016.1 hPa SSE 2.0 mph /  3.2 km/h 5.0 mph /  8 km/h 88 % 0.00 in /  0 mm
10:15 47.0 °F /  8.3 °C 43.3 °F /  6.3 °C 30.01 in /  1016.1 hPa SSE 1.0 mph /  1.6 km/h 5.0 mph /  8 km/h 87 % 0.00 in /  0 mm
10:20 47.6 °F /  8.7 °C 43.9 °F /  6.6 °C 30.01 in /  1016.1 hPa SSE 1.0 mph /  1.6 km/h 6.0 mph /  9.7 km/h 87 % 0.00 in /  0 mm
10:25 48.3 °F /  9.1 °C 44.3 °F /  6.8 °C 30.01 in /  1016.1 hPa SSE 2.0 mph /  3.2 km/h 4.0 mph /  6.4 km/h 86 % 0.00 in /  0 mm
10:30 49.0 °F /  9.4 °C 44.7 °F /  7.1 °C 30.01 in /  1016.1 hPa Calm   4.0 mph /  6.4 km/h 85 % 0.00 in /  0 mm
10:35 49.8 °F /  9.9 °C 45.2 °F /  7.3 °C 30.01 in /  1016.1 hPa Calm   4.0 mph /  6.4 km/h 84 % 0.00 in /  0 mm
10:40 50.5 °F /  10.3 °C 45.2 °F /  7.3 °C 30.01 in /  1016.1 hPa SSE 1.0 mph /  1.6 km/h 5.0 mph /  8 km/h 82 % 0.00 in /  0 mm
10:45 50.9 °F /  10.5 °C 44.9 °F /  7.2 °C 30.01 in /  1016.1 hPa SSE 3.0 mph /  4.8 km/h 7.0 mph /  11.3 km/h 80 % 0.00 in /  0 mm
10:50 51.4 °F /  10.8 °C 45.1 °F /  7.3 °C 30.01 in /  1016.1 hPa SSE 3.0 mph /  4.8 km/h 5.0 mph /  8 km/h 79 % 0.00 in /  0 mm
10:55 51.8 °F /  11 °C 45.2 °F /  7.3 °C 30.01 in /  1016.1 hPa SSE 2.0 mph /  3.2 km/h 6.0 mph /  9.7 km/h 78 % 0.00 in /  0 mm
11:00 52.3 °F /  11.3 °C 45.3 °F /  7.4 °C 30.00 in /  1015.8 hPa SSE 1.0 mph /  1.6 km/h 6.0 mph /  9.7 km/h 77 % 0.00 in /  0 mm
11:05 52.5 °F /  11.4 °C 45.2 °F /  7.3 °C 30.01 in /  1016.1 hPa SSE 3.0 mph /  4.8 km/h 6.0 mph /  9.7 km/h 76 % 0.00 in /  0 mm
11:10 52.7 °F /  11.5 °C 45.0 °F /  7.2 °C 30.01 in /  1016.1 hPa SSE 2.0 mph /  3.2 km/h 8.0 mph /  12.9 km/h 75 % 0.00 in /  0 mm
11:15 53.2 °F /  11.8 °C 45.5 °F /  7.5 °C 30.01 in /  1016.1 hPa SSE 1.0 mph /  1.6 km/h 6.0 mph /  9.7 km/h 75 % 0.00 in /  0 mm
11:20 53.6 °F /  12 °C 45.5 °F /  7.5 °C 30.01 in /  1016.1 hPa SSE 2.0 mph /  3.2 km/h 6.0 mph /  9.7 km/h 74 % 0.00 in /  0 mm
11:25 54.1 °F /  12.3 °C 45.6 °F /  7.6 °C 30.01 in /  1016.1 hPa SSE 2.0 mph /  3.2 km/h 6.0 mph /  9.7 km/h 73 % 0.00 in /  0 mm
11:30 54.7 °F /  12.6 °C 46.2 °F /  7.9 °C 30.01 in /  1016.1 hPa SSE 3.0 mph /  4.8 km/h 6.0 mph /  9.7 km/h 73 % 0.00 in /  0 mm
11:35 55.3 °F /  12.9 °C 46.4 °F /  8 °C 30.01 in /  1016.1 hPa SSE 3.0 mph /  4.8 km/h 6.0 mph /  9.7 km/h 72 % 0.00 in /  0 mm
11:40 55.7 °F /  13.2 °C 46.1 °F /  7.8 °C 30.01 in /  1016.1 hPa SSE 3.0 mph /  4.8 km/h 5.0 mph /  8 km/h 70 % 0.00 in /  0 mm
11:45 56.5 °F /  13.6 °C 46.8 °F /  8.2 °C 30.01 in /  1016.1 hPa SSE 3.0 mph /  4.8 km/h 7.0 mph /  11.3 km/h 70 % 0.00 in /  0 mm
11:50 57.0 °F /  13.9 °C 46.5 °F /  8.1 °C 30.01 in /  1016.1 hPa SSE 6.0 mph /  9.7 km/h 7.0 mph /  11.3 km/h 68 % 0.00 in /  0 mm
11:55 57.3 °F /  14.1 °C 46.4 °F /  8 °C 30.01 in /  1016.1 hPa SSE 3.0 mph /  4.8 km/h 6.0 mph /  9.7 km/h 67 % 0.00 in /  0 mm
12:00 57.6 °F /  14.2 °C 45.9 °F /  7.7 °C 30.01 in /  1016.1 hPa SSE 5.0 mph /  8 km/h 9.0 mph /  14.5 km/h 65 % 0.00 in /  0 mm
12:05 58.3 °F /  14.6 °C 46.6 °F /  8.1 °C 30.01 in /  1016.1 hPa SSE 3.0 mph /  4.8 km/h 6.0 mph /  9.7 km/h 65 % 0.00 in /  0 mm
12:10 59.4 °F /  15.2 °C 46.4 °F /  8 °C 30.02 in /  1016.5 hPa SSE 5.0 mph /  8 km/h 9.0 mph /  14.5 km/h 62 % 0.00 in /  0 mm
12:15 60.0 °F /  15.6 °C 45.2 °F /  7.3 °C 30.02 in /  1016.5 hPa SSE 6.0 mph /  9.7 km/h 9.0 mph /  14.5 km/h 58 % 0.00 in /  0 mm
12:20 60.5 °F /  15.8 °C 44.2 °F /  6.8 °C 30.02 in /  1016.5 hPa SSE 7.0 mph /  11.3 km/h 13.0 mph /  20.9 km/h 55 % 0.00 in /  0 mm
12:25 60.7 °F /  15.9 °C 43.9 °F /  6.6 °C 30.02 in /  1016.5 hPa SSE 6.0 mph /  9.7 km/h 8.0 mph /  12.9 km/h 54 % 0.00 in /  0 mm
12:30 61.3 °F /  16.3 °C 44.5 °F /  6.9 °C 30.02 in /  1016.5 hPa SSE 7.0 mph /  11.3 km/h 9.0 mph /  14.5 km/h 54 % 0.00 in /  0 mm
12:35 61.8 °F /  16.6 °C 44.0 °F /  6.7 °C 30.02 in /  1016.5 hPa SSE 5.0 mph /  8 km/h 9.0 mph /  14.5 km/h 52 % 0.00 in /  0 mm
12:40 61.6 °F /  16.4 °C 43.3 °F /  6.3 °C 30.02 in /  1016.5 hPa SSE 7.0 mph /  11.3 km/h 9.0 mph /  14.5 km/h 51 % 0.00 in /  0 mm
12:45 61.5 °F /  16.4 °C 43.7 °F /  6.5 °C 30.02 in /  1016.5 hPa SSE 3.0 mph /  4.8 km/h 9.0 mph /  14.5 km/h 52 % 0.00 in /  0 mm
12:50 61.9 °F /  16.6 °C 43.6 °F /  6.4 °C 30.02 in /  1016.5 hPa SSE 6.0 mph /  9.7 km/h 10.0 mph /  16.1 km/h 51 % 0.00 in /  0 mm
12:55 62.4 °F /  16.9 °C 43.5 °F /  6.4 °C 30.03 in /  1016.8 hPa SSE 6.0 mph /  9.7 km/h 11.0 mph /  17.7 km/h 50 % 0.00 in /  0 mm
13:00 62.6 °F /  17 °C 43.2 °F /  6.2 °C 30.03 in /  1016.8 hPa SSE 3.0 mph /  4.8 km/h 10.0 mph /  16.1 km/h 49 % 0.00 in /  0 mm
13:05 62.4 °F /  16.9 °C 43.5 °F /  6.4 °C 30.03 in /  1016.8 hPa SSE 8.0 mph /  12.9 km/h 11.0 mph /  17.7 km/h 50 % 0.00 in /  0 mm
13:10 62.4 °F /  16.9 °C 43.5 °F /  6.4 °C 30.03 in /  1016.8 hPa South 8.0 mph /  12.9 km/h 10.0 mph /  16.1 km/h 50 % 0.00 in /  0 mm
13:15 62.7 °F /  17.1 °C 43.8 °F /  6.6 °C 30.02 in /  1016.5 hPa South 6.0 mph /  9.7 km/h 10.0 mph /  16.1 km/h 50 % 0.00 in /  0 mm
13:20 64.0 °F /  17.8 °C 43.9 °F /  6.6 °C 30.02 in /  1016.5 hPa South 8.0 mph /  12.9 km/h 13.0 mph /  20.9 km/h 48 % 0.00 in /  0 mm
13:25 64.5 °F /  18.1 °C 42.7 °F /  5.9 °C 30.02 in /  1016.5 hPa South 6.0 mph /  9.7 km/h 11.0 mph /  17.7 km/h 45 % 0.00 in /  0 mm
13:30 64.4 °F /  18 °C 42.6 °F /  5.9 °C 30.02 in /  1016.5 hPa SSE 10.0 mph /  16.1 km/h 14.0 mph /  22.5 km/h 45 % 0.00 in /  0 mm
13:34 68.3 °F /  20.2 °C 43.0 °F /  6.1 °C 29.98 in /  1015.1 hPa SE 11.5 mph /  18.5 km/h 8.8 mph /  14.2 km/h 40 % 0.00 in /  0 mm
13:35 64.2 °F /  17.9 °C 41.8 °F /  5.4 °C 30.02 in /  1016.5 hPa South 8.0 mph /  12.9 km/h 14.0 mph /  22.5 km/h 44 % 0.00 in /  0 mm
13:39 68.9 °F /  20.5 °C 42.9 °F /  6.1 °C 29.98 in /  1015.1 hPa SW 10.4 mph /  16.7 km/h 6.5 mph /  10.5 km/h 39 % 0.00 in /  0 mm
13:40 64.2 °F /  17.9 °C 41.8 °F /  5.4 °C 30.02 in /  1016.5 hPa SSW 8.0 mph /  12.9 km/h 13.0 mph /  20.9 km/h 44 % 0.00 in /  0 mm
13:44 69.1 °F /  20.6 °C 41.7 °F /  5.4 °C 29.98 in /  1015.1 hPa SW 9.2 mph /  14.8 km/h 7.7 mph /  12.4 km/h 37 % 0.00 in /  0 mm
13:45 64.8 °F /  18.2 °C 42.4 °F /  5.8 °C 30.02 in /  1016.5 hPa SSW 8.0 mph /  12.9 km/h 14.0 mph /  22.5 km/h 44 % 0.00 in /  0 mm
13:49 69.6 °F /  20.9 °C 42.9 °F /  6.1 °C 29.98 in /  1015.1 hPa South 10.4 mph /  16.7 km/h 8.6 mph /  13.8 km/h 38 % 0.00 in /  0 mm
13:50 64.8 °F /  18.2 °C 42.4 °F /  5.8 °C 30.02 in /  1016.5 hPa SSW 10.0 mph /  16.1 km/h 14.0 mph /  22.5 km/h 44 % 0.00 in /  0 mm
13:54 70.0 °F /  21.1 °C 43.2 °F /  6.2 °C 29.97 in /  1014.8 hPa SSE 6.9 mph /  11.1 km/h 2.6 mph /  4.2 km/h 38 % 0.00 in /  0 mm
13:55 64.9 °F /  18.3 °C 43.0 °F /  6.1 °C 30.02 in /  1016.5 hPa SSW 6.0 mph /  9.7 km/h 15.0 mph /  24.1 km/h 45 % 0.00 in /  0 mm
13:59 70.1 °F /  21.2 °C 42.6 °F /  5.9 °C 29.97 in /  1014.8 hPa South 16.1 mph /  25.9 km/h 8.7 mph /  14 km/h 37 % 0.00 in /  0 mm
14:00 65.0 °F /  18.3 °C 42.5 °F /  5.8 °C 30.02 in /  1016.5 hPa SSW 3.0 mph /  4.8 km/h 15.0 mph /  24.1 km/h 44 % 0.00 in /  0 mm
14:04 69.6 °F /  20.9 °C 42.2 °F /  5.7 °C 29.97 in /  1014.8 hPa SSW 12.7 mph /  20.4 km/h 10.0 mph /  16.1 km/h 37 % 0.00 in /  0 mm
14:05 65.2 °F /  18.4 °C 42.1 °F /  5.6 °C 30.02 in /  1016.5 hPa SSW 6.0 mph /  9.7 km/h 10.0 mph /  16.1 km/h 43 % 0.00 in /  0 mm
14:09 69.7 °F /  20.9 °C 42.3 °F /  5.7 °C 29.97 in /  1014.8 hPa South 9.2 mph /  14.8 km/h 7.1 mph /  11.4 km/h 37 % 0.00 in /  0 mm
14:10 65.2 °F /  18.4 °C 42.7 °F /  5.9 °C 30.01 in /  1016.1 hPa SSW 3.0 mph /  4.8 km/h 12.0 mph /  19.3 km/h 44 % 0.00 in /  0 mm
14:14 69.7 °F /  20.9 °C 41.5 °F /  5.3 °C 29.97 in /  1014.8 hPa SSW 10.0 mph /  16.1 km/h 7.5 mph /  12.1 km/h 36 % 0.00 in /  0 mm
14:15 66.3 °F /  19.1 °C 43.1 °F /  6.2 °C 30.01 in /  1016.1 hPa South 7.0 mph /  11.3 km/h 13.0 mph /  20.9 km/h 43 % 0.00 in /  0 mm
14:19 69.6 °F /  20.9 °C 42.2 °F /  5.7 °C 29.96 in /  1014.4 hPa SSW 10.4 mph /  16.7 km/h 6.8 mph /  10.9 km/h 37 % 0.00 in /  0 mm
14:20 66.7 °F /  19.3 °C 42.2 °F /  5.7 °C 30.01 in /  1016.1 hPa SSE 9.0 mph /  14.5 km/h 15.0 mph /  24.1 km/h 41 % 0.00 in /  0 mm
14:24 70.3 °F /  21.3 °C 42.8 °F /  6 °C 29.96 in /  1014.4 hPa South 9.2 mph /  14.8 km/h 5.7 mph /  9.2 km/h 37 % 0.00 in /  0 mm
14:25 66.2 °F /  19 °C 41.8 °F /  5.4 °C 30.01 in /  1016.1 hPa South 10.0 mph /  16.1 km/h 15.0 mph /  24.1 km/h 41 % 0.00 in /  0 mm
14:29 70.9 °F /  21.6 °C 42.6 °F /  5.9 °C 29.96 in /  1014.4 hPa SSW 13.8 mph /  22.2 km/h 11.1 mph /  17.9 km/h 36 % 0.00 in /  0 mm
14:30 66.2 °F /  19 °C 42.4 °F /  5.8 °C 30.00 in /  1015.8 hPa South 6.0 mph /  9.7 km/h 11.0 mph /  17.7 km/h 42 % 0.00 in /  0 mm
14:34 70.5 °F /  21.4 °C 43.0 °F /  6.1 °C 29.96 in /  1014.4 hPa SSW 11.5 mph /  18.5 km/h 4.4 mph /  7.1 km/h 37 % 0.00 in /  0 mm
14:35 65.9 °F /  18.8 °C 42.8 °F /  6 °C 30.00 in /  1015.8 hPa SSW 9.0 mph /  14.5 km/h 15.0 mph /  24.1 km/h 43 % 0.00 in /  0 mm
14:39 70.9 °F /  21.6 °C 43.3 °F /  6.3 °C 29.95 in /  1014.1 hPa SSW 6.9 mph /  11.1 km/h 5.8 mph /  9.3 km/h 37 % 0.00 in /  0 mm
14:40 66.4 °F /  19.1 °C 42.6 °F /  5.9 °C 30.00 in /  1015.8 hPa SSW 8.0 mph /  12.9 km/h 16.0 mph /  25.7 km/h 42 % 0.00 in /  0 mm
14:44 71.1 °F /  21.7 °C 42.0 °F /  5.6 °C 29.95 in /  1014.1 hPa South 11.5 mph /  18.5 km/h 5.3 mph /  8.5 km/h 35 % 0.00 in /  0 mm
14:45 66.8 °F /  19.3 °C 43.0 °F /  6.1 °C 30.00 in /  1015.8 hPa South 5.0 mph /  8 km/h 10.0 mph /  16.1 km/h 42 % 0.00 in /  0 mm
14:49 71.4 °F /  21.9 °C 43.0 °F /  6.1 °C 29.94 in /  1013.8 hPa South 9.0 mph /  14.5 km/h 6.3 mph /  10.1 km/h 36 % 0.00 in /  0 mm
14:50 67.1 °F /  19.5 °C 42.6 °F /  5.9 °C 30.00 in /  1015.8 hPa SSW 7.0 mph /  11.3 km/h 12.0 mph /  19.3 km/h 41 % 0.00 in /  0 mm
14:54 71.7 °F /  22.1 °C 43.3 °F /  6.3 °C 29.94 in /  1013.8 hPa SSW 3.5 mph /  5.6 km/h 2.2 mph /  3.5 km/h 36 % 0.00 in /  0 mm
14:55 67.7 °F /  19.8 °C 43.1 °F /  6.2 °C 30.00 in /  1015.8 hPa South 6.0 mph /  9.7 km/h 12.0 mph /  19.3 km/h 41 % 0.00 in /  0 mm
14:59 72.1 °F /  22.3 °C 42.9 °F /  6.1 °C 29.94 in /  1013.8 hPa SW 11.0 mph /  17.7 km/h 7.7 mph /  12.4 km/h 35 % 0.00 in /  0 mm
15:00 67.8 °F /  19.9 °C 41.3 °F /  5.2 °C 30.00 in /  1015.8 hPa SSE 7.0 mph /  11.3 km/h 12.0 mph /  19.3 km/h 38 % 0.00 in /  0 mm
15:04 71.3 °F /  21.8 °C 43.0 °F /  6.1 °C 29.94 in /  1013.8 hPa SSW 9.2 mph /  14.8 km/h 7.1 mph /  11.4 km/h 36 % 0.00 in /  0 mm
15:05 67.2 °F /  19.6 °C 42.0 °F /  5.6 °C 30.00 in /  1015.8 hPa South 3.0 mph /  4.8 km/h 13.0 mph /  20.9 km/h 40 % 0.00 in /  0 mm
15:09 71.2 °F /  21.8 °C 42.9 °F /  6.1 °C 29.94 in /  1013.8 hPa SSW 5.8 mph /  9.3 km/h 3.1 mph /  5 km/h 36 % 0.00 in /  0 mm
15:10 67.6 °F /  19.8 °C 42.4 °F /  5.8 °C 29.99 in /  1015.5 hPa South 10.0 mph /  16.1 km/h 14.0 mph /  22.5 km/h 40 % 0.00 in /  0 mm
15:14 71.5 °F /  21.9 °C 42.4 °F /  5.8 °C 29.94 in /  1013.8 hPa SSW 15.0 mph /  24.1 km/h 7.0 mph /  11.3 km/h 35 % 0.00 in /  0 mm
15:15 67.8 °F /  19.9 °C 41.9 °F /  5.5 °C 29.99 in /  1015.5 hPa South 9.0 mph /  14.5 km/h 15.0 mph /  24.1 km/h 39 % 0.00 in /  0 mm
15:19 71.3 °F /  21.8 °C 43.0 °F /  6.1 °C 29.94 in /  1013.8 hPa SSW 9.2 mph /  14.8 km/h 6.9 mph /  11.1 km/h 36 % 0.00 in /  0 mm
15:20 67.5 °F /  19.7 °C 41.7 °F /  5.4 °C 29.99 in /  1015.5 hPa SSW 7.0 mph /  11.3 km/h 10.0 mph /  16.1 km/h 39 % 0.00 in /  0 mm
15:24 71.7 °F /  22.1 °C 42.6 °F /  5.9 °C 29.94 in /  1013.8 hPa SW 10.4 mph /  16.7 km/h 7.7 mph /  12.4 km/h 35 % 0.00 in /  0 mm
15:25 68.0 °F /  20 °C 42.8 °F /  6 °C 29.99 in /  1015.5 hPa SSW 9.0 mph /  14.5 km/h 16.0 mph /  25.7 km/h 40 % 0.00 in /  0 mm
15:29 71.6 °F /  22 °C 42.5 °F /  5.8 °C 29.94 in /  1013.8 hPa SSW 11.5 mph /  18.5 km/h 7.2 mph /  11.6 km/h 35 % 0.00 in /  0 mm
15:30 68.2 °F /  20.1 °C 42.3 °F /  5.7 °C 29.99 in /  1015.5 hPa SSW 8.0 mph /  12.9 km/h 13.0 mph /  20.9 km/h 39 % 0.00 in /  0 mm
15:34 71.8 °F /  22.1 °C 42.7 °F /  5.9 °C 29.93 in /  1013.4 hPa South 8.0 mph /  12.9 km/h 4.3 mph /  6.9 km/h 35 % 0.00 in /  0 mm
15:35 68.0 °F /  20 °C 42.1 °F /  5.6 °C 29.99 in /  1015.5 hPa SSW 2.0 mph /  3.2 km/h 13.0 mph /  20.9 km/h 39 % 0.00 in /  0 mm
15:39 71.9 °F /  22.2 °C 43.5 °F /  6.4 °C 29.93 in /  1013.4 hPa South 11.5 mph /  18.5 km/h 7.1 mph /  11.4 km/h 36 % 0.00 in /  0 mm
15:40 68.5 °F /  20.3 °C 42.6 °F /  5.9 °C 29.98 in /  1015.1 hPa SSW 9.0 mph /  14.5 km/h 13.0 mph /  20.9 km/h 39 % 0.00 in /  0 mm
15:44 72.3 °F /  22.4 °C 43.8 °F /  6.6 °C 29.93 in /  1013.4 hPa South 9.2 mph /  14.8 km/h 4.2 mph /  6.8 km/h 36 % 0.00 in /  0 mm
15:45 69.1 °F /  20.6 °C 41.7 °F /  5.4 °C 29.98 in /  1015.1 hPa SSW 9.0 mph /  14.5 km/h 14.0 mph /  22.5 km/h 37 % 0.00 in /  0 mm
15:49 72.5 °F /  22.5 °C 42.5 °F /  5.8 °C 29.93 in /  1013.4 hPa South 10.4 mph /  16.7 km/h 6.3 mph /  10.1 km/h 34 % 0.00 in /  0 mm
15:50 69.1 °F /  20.6 °C 42.4 °F /  5.8 °C 29.98 in /  1015.1 hPa SW 5.0 mph /  8 km/h 11.0 mph /  17.7 km/h 38 % 0.00 in /  0 mm
15:54 72.8 °F /  22.7 °C 43.5 °F /  6.4 °C 29.93 in /  1013.4 hPa SSE 12.7 mph /  20.4 km/h 5.5 mph /  8.9 km/h 35 % 0.00 in /  0 mm
15:55 69.7 °F /  20.9 °C 43.6 °F /  6.4 °C 29.98 in /  1015.1 hPa SSW 6.0 mph /  9.7 km/h 12.0 mph /  19.3 km/h 39 % 0.00 in /  0 mm
15:59 73.6 °F /  23.1 °C 43.5 °F /  6.4 °C 29.93 in /  1013.4 hPa South 6.0 mph /  9.7 km/h 4.3 mph /  6.9 km/h 34 % 0.00 in /  0 mm
16:00 70.1 °F /  21.2 °C 42.6 °F /  5.9 °C 29.98 in /  1015.1 hPa South 8.0 mph /  12.9 km/h 10.0 mph /  16.1 km/h 37 % 0.00 in /  0 mm
16:04 73.7 °F /  23.2 °C 42.8 °F /  6 °C 29.93 in /  1013.4 hPa South 12.7 mph /  20.4 km/h 6.9 mph /  11.1 km/h 33 % 0.00 in /  0 mm
16:05 70.1 °F /  21.2 °C 42.6 °F /  5.9 °C 29.98 in /  1015.1 hPa South 7.0 mph /  11.3 km/h 16.0 mph /  25.7 km/h 37 % 0.00 in /  0 mm
16:09 72.9 °F /  22.7 °C 42.9 °F /  6.1 °C 29.92 in /  1013.1 hPa South 5.0 mph /  8 km/h 4.4 mph /  7.1 km/h 34 % 0.00 in /  0 mm
16:10 69.5 °F /  20.8 °C 42.1 °F /  5.6 °C 29.97 in /  1014.8 hPa SSW 7.0 mph /  11.3 km/h 13.0 mph /  20.9 km/h 37 % 0.00 in /  0 mm
16:14 73.0 °F /  22.8 °C 43.0 °F /  6.1 °C 29.92 in /  1013.1 hPa South 18.4 mph /  29.6 km/h 8.1 mph /  13 km/h 34 % 0.00 in /  0 mm
16:19 72.7 °F /  22.6 °C 41.9 °F /  5.5 °C 29.93 in /  1013.4 hPa SSW 12.7 mph /  20.4 km/h 8.6 mph /  13.8 km/h 33 % 0.00 in /  0 mm
16:24 72.4 °F /  22.4 °C 40.9 °F /  4.9 °C 29.92 in /  1013.1 hPa SW 13.0 mph /  20.9 km/h 8.2 mph /  13.2 km/h 32 % 0.00 in /  0 mm
16:29 72.6 °F /  22.6 °C 41.0 °F /  5 °C 29.92 in /  1013.1 hPa SSW 12.7 mph /  20.4 km/h 5.8 mph /  9.3 km/h 32 % 0.00 in /  0 mm
16:34 72.9 °F /  22.7 °C 42.1 °F /  5.6 °C 29.92 in /  1013.1 hPa SSW 5.8 mph /  9.3 km/h 3.8 mph /  6.1 km/h 33 % 0.00 in /  0 mm
16:39 73.5 °F /  23.1 °C 41.8 °F /  5.4 °C 29.92 in /  1013.1 hPa SSE 11.5 mph /  18.5 km/h 8.5 mph /  13.7 km/h 32 % 0.00 in /  0 mm
16:44 73.6 °F /  23.1 °C 41.1 °F /  5.1 °C 29.92 in /  1013.1 hPa SSW 10.4 mph /  16.7 km/h 4.8 mph /  7.7 km/h 31 % 0.00 in /  0 mm
16:49 73.7 °F /  23.2 °C 40.3 °F /  4.6 °C 29.92 in /  1013.1 hPa SW 8.1 mph /  13 km/h 4.6 mph /  7.4 km/h 30 % 0.00 in /  0 mm
16:54 73.5 °F /  23.1 °C 41.0 °F /  5 °C 29.92 in /  1013.1 hPa WSW 10.4 mph /  16.7 km/h 8.8 mph /  14.2 km/h 31 % 0.00 in /  0 mm
16:59 73.1 °F /  22.8 °C 40.7 °F /  4.8 °C 29.92 in /  1013.1 hPa SW 10.4 mph /  16.7 km/h 6.9 mph /  11.1 km/h 31 % 0.00 in /  0 mm
17:04 72.9 °F /  22.7 °C 40.5 °F /  4.7 °C 29.92 in /  1013.1 hPa SSW 17.3 mph /  27.8 km/h 11.2 mph /  18 km/h 31 % 0.00 in /  0 mm
17:09 72.7 °F /  22.6 °C 40.3 °F /  4.6 °C 29.92 in /  1013.1 hPa SW 9.2 mph /  14.8 km/h 4.9 mph /  7.9 km/h 31 % 0.00 in /  0 mm
17:14 73.1 °F /  22.8 °C 40.7 °F /  4.8 °C 29.91 in /  1012.8 hPa WSW 11.5 mph /  18.5 km/h 8.5 mph /  13.7 km/h 31 % 0.00 in /  0 mm
17:19 73.0 °F /  22.8 °C 39.7 °F /  4.3 °C 29.91 in /  1012.8 hPa SSW 10.4 mph /  16.7 km/h 7.5 mph /  12.1 km/h 30 % 0.00 in /  0 mm
17:24 73.1 °F /  22.8 °C 40.7 °F /  4.8 °C 29.92 in /  1013.1 hPa SSE 10.0 mph /  16.1 km/h 7.4 mph /  11.9 km/h 31 % 0.00 in /  0 mm
17:29 73.0 °F /  22.8 °C 40.6 °F /  4.8 °C 29.92 in /  1013.1 hPa SSW 9.2 mph /  14.8 km/h 8.2 mph /  13.2 km/h 31 % 0.00 in /  0 mm
17:34 72.9 °F /  22.7 °C 40.5 °F /  4.7 °C 29.91 in /  1012.8 hPa SSW 9.2 mph /  14.8 km/h 6.1 mph /  9.8 km/h 31 % 0.00 in /  0 mm
17:39 72.9 °F /  22.7 °C 41.3 °F /  5.2 °C 29.91 in /  1012.8 hPa SSW 8.1 mph /  13 km/h 5.6 mph /  9 km/h 32 % 0.00 in /  0 mm
17:44 73.2 °F /  22.9 °C 40.7 °F /  4.8 °C 29.91 in /  1012.8 hPa SSW 9.2 mph /  14.8 km/h 5.4 mph /  8.7 km/h 31 % 0.00 in /  0 mm
17:49 72.9 °F /  22.7 °C 40.5 °F /  4.7 °C 29.91 in /  1012.8 hPa SSW 9.2 mph /  14.8 km/h 6.9 mph /  11.1 km/h 31 % 0.00 in /  0 mm
17:54 73.0 °F /  22.8 °C 41.4 °F /  5.2 °C 29.91 in /  1012.8 hPa SSW 9.0 mph /  14.5 km/h 6.3 mph /  10.1 km/h 32 % 0.00 in /  0 mm
17:59 73.0 °F /  22.8 °C 40.6 °F /  4.8 °C 29.91 in /  1012.8 hPa SSW 11.5 mph /  18.5 km/h 6.9 mph /  11.1 km/h 31 % 0.00 in /  0 mm
18:04 72.8 °F /  22.7 °C 40.4 °F /  4.7 °C 29.91 in /  1012.8 hPa SSW 10.4 mph /  16.7 km/h 6.6 mph /  10.6 km/h 31 % 0.00 in /  0 mm
18:09 72.6 °F /  22.6 °C 40.2 °F /  4.6 °C 29.92 in /  1013.1 hPa SSW 11.5 mph /  18.5 km/h 5.5 mph /  8.9 km/h 31 % 0.00 in /  0 mm
18:14 72.5 °F /  22.5 °C 41.0 °F /  5 °C 29.91 in /  1012.8 hPa South 11.5 mph /  18.5 km/h 7.3 mph /  11.7 km/h 32 % 0.00 in /  0 mm
18:19 72.6 °F /  22.6 °C 41.0 °F /  5 °C 29.91 in /  1012.8 hPa South 9.2 mph /  14.8 km/h 6.3 mph /  10.1 km/h 32 % 0.00 in /  0 mm
18:24 72.6 °F /  22.6 °C 41.0 °F /  5 °C 29.92 in /  1013.1 hPa SSW 11.5 mph /  18.5 km/h 5.0 mph /  8 km/h 32 % 0.00 in /  0 mm
18:29 72.6 °F /  22.6 °C 41.0 °F /  5 °C 29.92 in /  1013.1 hPa SSW 11.5 mph /  18.5 km/h 10.4 mph /  16.7 km/h 32 % 0.00 in /  0 mm
18:34 72.3 °F /  22.4 °C 40.8 °F /  4.9 °C 29.92 in /  1013.1 hPa North 10.4 mph /  16.7 km/h 7.6 mph /  12.2 km/h 32 % 0.00 in /  0 mm
18:39 72.1 °F /  22.3 °C 40.6 °F /  4.8 °C 29.92 in /  1013.1 hPa SSW 11.5 mph /  18.5 km/h 5.5 mph /  8.9 km/h 32 % 0.00 in /  0 mm
18:44 72.1 °F /  22.3 °C 40.6 °F /  4.8 °C 29.92 in /  1013.1 hPa SW 12.7 mph /  20.4 km/h 7.0 mph /  11.3 km/h 32 % 0.00 in /  0 mm
18:49 71.8 °F /  22.1 °C 40.3 °F /  4.6 °C 29.93 in /  1013.4 hPa SW 11.5 mph /  18.5 km/h 6.6 mph /  10.6 km/h 32 % 0.00 in /  0 mm
18:54 71.6 °F /  22 °C 40.2 °F /  4.6 °C 29.93 in /  1013.4 hPa SSW 8.1 mph /  13 km/h 4.9 mph /  7.9 km/h 32 % 0.00 in /  0 mm
18:56 71.6 °F /  22 °C 40.2 °F /  4.6 °C 29.93 in /  1013.4 hPa SSW 11.0 mph /  17.7 km/h 8.2 mph /  13.2 km/h 32 % 0.00 in /  0 mm
19:04 71.2 °F /  21.8 °C 39.8 °F /  4.3 °C 29.93 in /  1013.4 hPa SSW 12.7 mph /  20.4 km/h 7.6 mph /  12.2 km/h 32 % 0.00 in /  0 mm
19:09 71.1 °F /  21.7 °C 40.5 °F /  4.7 °C 29.93 in /  1013.4 hPa SSW 12.0 mph /  19.3 km/h 8.5 mph /  13.7 km/h 33 % 0.00 in /  0 mm
19:15 72.8 °F /  22.7 °C 40.4 °F /  4.7 °C 29.92 in /  1013.1 hPa SW 6.0 mph /  9.7 km/h 13.0 mph /  20.9 km/h 31 % 0.00 in /  0 mm
19:19 69.7 °F /  20.9 °C 44.3 °F /  6.8 °C 29.94 in /  1013.8 hPa South 11.5 mph /  18.5 km/h 5.9 mph /  9.5 km/h 40 % 0.00 in /  0 mm
19:24 69.0 °F /  20.6 °C 44.3 °F /  6.8 °C 29.94 in /  1013.8 hPa South 16.1 mph /  25.9 km/h 7.2 mph /  11.6 km/h 41 % 0.00 in /  0 mm
19:29 68.4 °F /  20.2 °C 44.4 °F /  6.9 °C 29.94 in /  1013.8 hPa North 12.7 mph /  20.4 km/h 7.3 mph /  11.7 km/h 42 % 0.00 in /  0 mm
19:34 67.8 °F /  19.9 °C 44.5 °F /  6.9 °C 29.95 in /  1014.1 hPa South 17.3 mph /  27.8 km/h 7.2 mph /  11.6 km/h 43 % 0.00 in /  0 mm
19:39 67.2 °F /  19.6 °C 45.1 °F /  7.3 °C 29.95 in /  1014.1 hPa South 15.0 mph /  24.1 km/h 8.1 mph /  13 km/h 45 % 0.00 in /  0 mm
19:44 66.4 °F /  19.1 °C 45.0 °F /  7.2 °C 29.95 in /  1014.1 hPa South 19.6 mph /  31.5 km/h 9.3 mph /  15 km/h 46 % 0.00 in /  0 mm
19:49 65.9 °F /  18.8 °C 45.1 °F /  7.3 °C 29.95 in /  1014.1 hPa SSE 10.4 mph /  16.7 km/h 8.3 mph /  13.4 km/h 47 % 0.00 in /  0 mm
19:54 65.5 °F /  18.6 °C 45.3 °F /  7.4 °C 29.96 in /  1014.4 hPa South 10.4 mph /  16.7 km/h 5.8 mph /  9.3 km/h 48 % 0.00 in /  0 mm
19:59 65.1 °F /  18.4 °C 44.9 °F /  7.2 °C 29.96 in /  1014.4 hPa South 11.5 mph /  18.5 km/h 4.3 mph /  6.9 km/h 48 % 0.00 in /  0 mm
20:04 64.7 °F /  18.2 °C 45.1 °F /  7.3 °C 29.96 in /  1014.4 hPa South 13.8 mph /  22.2 km/h 5.9 mph /  9.5 km/h 49 % 0.00 in /  0 mm
20:09 64.2 °F /  17.9 °C 45.2 °F /  7.3 °C 29.96 in /  1014.4 hPa South 12.7 mph /  20.4 km/h 9.2 mph /  14.8 km/h 50 % 0.00 in /  0 mm
20:14 63.7 °F /  17.6 °C 45.2 °F /  7.3 °C 29.96 in /  1014.4 hPa SSE 16.1 mph /  25.9 km/h 8.9 mph /  14.3 km/h 51 % 0.00 in /  0 mm
20:19 63.1 °F /  17.3 °C 44.7 °F /  7.1 °C 29.97 in /  1014.8 hPa South 13.8 mph /  22.2 km/h 8.3 mph /  13.4 km/h 51 % 0.00 in /  0 mm
20:24 62.6 °F /  17 °C 44.7 °F /  7.1 °C 29.97 in /  1014.8 hPa South 13.8 mph /  22.2 km/h 8.3 mph /  13.4 km/h 52 % 0.00 in /  0 mm
20:29 62.2 °F /  16.8 °C 44.9 °F /  7.2 °C 29.97 in /  1014.8 hPa South 12.0 mph /  19.3 km/h 7.2 mph /  11.6 km/h 53 % 0.00 in /  0 mm
20:34 61.8 °F /  16.6 °C 44.5 °F /  6.9 °C 29.98 in /  1015.1 hPa South 10.0 mph /  16.1 km/h 7.5 mph /  12.1 km/h 53 % 0.00 in /  0 mm
20:39 61.5 °F /  16.4 °C 44.7 °F /  7.1 °C 29.98 in /  1015.1 hPa South 10.4 mph /  16.7 km/h 4.5 mph /  7.2 km/h 54 % 0.00 in /  0 mm
20:44 61.1 °F /  16.2 °C 44.8 °F /  7.1 °C 29.98 in /  1015.1 hPa South 11.0 mph /  17.7 km/h 7.7 mph /  12.4 km/h 55 % 0.00 in /  0 mm
20:49 60.7 °F /  15.9 °C 44.4 °F /  6.9 °C 29.99 in /  1015.5 hPa SSW 15.0 mph /  24.1 km/h 7.2 mph /  11.6 km/h 55 % 0.00 in /  0 mm
20:54 60.3 °F /  15.7 °C 45.0 °F /  7.2 °C 29.99 in /  1015.5 hPa South 9.2 mph /  14.8 km/h 7.0 mph /  11.3 km/h 57 % 0.00 in /  0 mm
20:59 59.9 °F /  15.5 °C 45.1 °F /  7.3 °C 30.00 in /  1015.8 hPa South 11.5 mph /  18.5 km/h 7.7 mph /  12.4 km/h 58 % 0.00 in /  0 mm
21:04 59.5 °F /  15.3 °C 45.2 °F /  7.3 °C 30.00 in /  1015.8 hPa South 9.2 mph /  14.8 km/h 5.3 mph /  8.5 km/h 59 % 0.00 in /  0 mm
21:09 59.2 °F /  15.1 °C 45.3 °F /  7.4 °C 30.00 in /  1015.8 hPa South 8.0 mph /  12.9 km/h 6.3 mph /  10.1 km/h 60 % 0.00 in /  0 mm
21:14 58.9 °F /  14.9 °C 45.5 °F /  7.5 °C 30.00 in /  1015.8 hPa South 12.7 mph /  20.4 km/h 7.5 mph /  12.1 km/h 61 % 0.00 in /  0 mm
21:19 58.6 °F /  14.8 °C 45.6 °F /  7.6 °C 30.00 in /  1015.8 hPa South 9.2 mph /  14.8 km/h 4.5 mph /  7.2 km/h 62 % 0.00 in /  0 mm
21:24 58.3 °F /  14.6 °C 45.8 °F /  7.7 °C 30.00 in /  1015.8 hPa South 11.5 mph /  18.5 km/h 5.8 mph /  9.3 km/h 63 % 0.00 in /  0 mm
21:29 58.0 °F /  14.4 °C 45.9 °F /  7.7 °C 30.01 in /  1016.1 hPa South 9.2 mph /  14.8 km/h 4.2 mph /  6.8 km/h 64 % 0.00 in /  0 mm
21:34 57.7 °F /  14.3 °C 45.6 °F /  7.6 °C 30.01 in /  1016.1 hPa South 9.2 mph /  14.8 km/h 5.8 mph /  9.3 km/h 64 % 0.00 in /  0 mm
21:39 57.5 °F /  14.2 °C 45.8 °F /  7.7 °C 30.01 in /  1016.1 hPa SSW 12.7 mph /  20.4 km/h 8.2 mph /  13.2 km/h 65 % 0.00 in /  0 mm
21:44 57.3 °F /  14.1 °C 45.6 °F /  7.6 °C 30.01 in /  1016.1 hPa South 10.4 mph /  16.7 km/h 3.8 mph /  6.1 km/h 65 % 0.00 in /  0 mm
21:49 57.0 °F /  13.9 °C 45.7 °F /  7.6 °C 30.02 in /  1016.5 hPa South 10.4 mph /  16.7 km/h 6.9 mph /  11.1 km/h 66 % 0.00 in /  0 mm
21:54 56.8 °F /  13.8 °C 46.0 °F /  7.8 °C 30.02 in /  1016.5 hPa South 9.2 mph /  14.8 km/h 6.2 mph /  10 km/h 67 % 0.00 in /  0 mm
21:59 56.5 °F /  13.6 °C 45.7 °F /  7.6 °C 30.02 in /  1016.5 hPa South 9.2 mph /  14.8 km/h 6.2 mph /  10 km/h 67 % 0.00 in /  0 mm
22:04 56.3 °F /  13.5 °C 45.9 °F /  7.7 °C 30.02 in /  1016.5 hPa South 8.1 mph /  13 km/h 6.2 mph /  10 km/h 68 % 0.00 in /  0 mm
22:09 56.0 °F /  13.3 °C 45.6 °F /  7.6 °C 30.02 in /  1016.5 hPa South 8.1 mph /  13 km/h 3.9 mph /  6.3 km/h 68 % 0.00 in /  0 mm
22:14 55.7 °F /  13.2 °C 45.7 °F /  7.6 °C 30.02 in /  1016.5 hPa South 8.0 mph /  12.9 km/h 6.6 mph /  10.6 km/h 69 % 0.00 in /  0 mm
22:19 55.3 °F /  12.9 °C 45.7 °F /  7.6 °C 30.02 in /  1016.5 hPa South 9.2 mph /  14.8 km/h 6.8 mph /  10.9 km/h 70 % 0.00 in /  0 mm
22:24 55.2 °F /  12.9 °C 45.6 °F /  7.6 °C 30.02 in /  1016.5 hPa South 11.5 mph /  18.5 km/h 5.0 mph /  8 km/h 70 % 0.00 in /  0 mm
22:29 55.0 °F /  12.8 °C 45.8 °F /  7.7 °C 30.02 in /  1016.5 hPa South 10.4 mph /  16.7 km/h 4.4 mph /  7.1 km/h 71 % 0.00 in /  0 mm
22:34 55.0 °F /  12.8 °C 45.8 °F /  7.7 °C 30.02 in /  1016.5 hPa South 8.1 mph /  13 km/h 6.0 mph /  9.7 km/h 71 % 0.00 in /  0 mm
22:39 54.9 °F /  12.7 °C 46.0 °F /  7.8 °C 30.02 in /  1016.5 hPa South 8.1 mph /  13 km/h 4.7 mph /  7.6 km/h 72 % 0.00 in /  0 mm
22:44 54.6 °F /  12.6 °C 45.8 °F /  7.7 °C 30.03 in /  1016.8 hPa South 9.2 mph /  14.8 km/h 6.8 mph /  10.9 km/h 72 % 0.00 in /  0 mm
22:49 54.4 °F /  12.4 °C 45.9 °F /  7.7 °C 30.03 in /  1016.8 hPa North 4.6 mph /  7.4 km/h 4.9 mph /  7.9 km/h 73 % 0.00 in /  0 mm
22:54 54.3 °F /  12.4 °C 45.8 °F /  7.7 °C 30.02 in /  1016.5 hPa South 10.4 mph /  16.7 km/h 5.2 mph /  8.4 km/h 73 % 0.00 in /  0 mm
22:59 54.1 °F /  12.3 °C 46.0 °F /  7.8 °C 30.02 in /  1016.5 hPa South 8.1 mph /  13 km/h 5.3 mph /  8.5 km/h 74 % 0.00 in /  0 mm
23:04 54.0 °F /  12.2 °C 45.9 °F /  7.7 °C 30.02 in /  1016.5 hPa South 6.9 mph /  11.1 km/h 5.4 mph /  8.7 km/h 74 % 0.00 in /  0 mm
23:09 53.9 °F /  12.2 °C 46.2 °F /  7.9 °C 30.03 in /  1016.8 hPa South 8.1 mph /  13 km/h 4.9 mph /  7.9 km/h 75 % 0.00 in /  0 mm
23:14 53.6 °F /  12 °C 45.9 °F /  7.7 °C 30.03 in /  1016.8 hPa South 8.1 mph /  13 km/h 5.8 mph /  9.3 km/h 75 % 0.00 in /  0 mm
23:19 53.4 °F /  11.9 °C 46.0 °F /  7.8 °C 30.03 in /  1016.8 hPa South 8.1 mph /  13 km/h 3.9 mph /  6.3 km/h 76 % 0.00 in /  0 mm
23:24 53.3 °F /  11.8 °C 46.3 °F /  7.9 °C 30.03 in /  1016.8 hPa South 8.1 mph /  13 km/h 4.9 mph /  7.9 km/h 77 % 0.00 in /  0 mm
23:29 53.1 °F /  11.7 °C 46.4 °F /  8 °C 30.03 in /  1016.8 hPa South 8.1 mph /  13 km/h 5.9 mph /  9.5 km/h 78 % 0.00 in /  0 mm
23:34 52.9 °F /  11.6 °C 46.2 °F /  7.9 °C 30.02 in /  1016.5 hPa North 8.0 mph /  12.9 km/h 4.7 mph /  7.6 km/h 78 % 0.00 in /  0 mm
23:39 52.9 °F /  11.6 °C 46.2 °F /  7.9 °C 30.02 in /  1016.5 hPa North 6.0 mph /  9.7 km/h 4.3 mph /  6.9 km/h 78 % 0.00 in /  0 mm
23:44 52.6 °F /  11.4 °C 46.3 °F /  7.9 °C 30.02 in /  1016.5 hPa South 6.9 mph /  11.1 km/h 2.7 mph /  4.3 km/h 79 % 0.00 in /  0 mm
23:49 52.5 °F /  11.4 °C 46.2 °F /  7.9 °C 30.02 in /  1016.5 hPa North 9.2 mph /  14.8 km/h 5.7 mph /  9.2 km/h 79 % 0.00 in /  0 mm
23:54 52.3 °F /  11.3 °C 46.3 °F /  7.9 °C 30.02 in /  1016.5 hPa South 6.9 mph /  11.1 km/h 5.8 mph /  9.3 km/h 80 % 0.00 in /  0 mm
23:59 52.2 °F /  11.2 °C 46.2 °F /  7.9 °C 30.03 in /  1016.8 hPa South 6.0 mph /  9.7 km/h 2.9 mph /  4.7 km/h 80 % 0.00 in /  0 mm
Ararat Weather
Compliments of Weather Underground - 3.25 mb
Click here to send mail.


ABOUT

Live weather data from Ararat, Victoria, Australia, 3377
Data uploaded from Cumulus every 5 minutes to Weather Underground.
This site then downloads the raw data for formatting and display.
Metric and imperial data can be displayed. Graphs and historical data available.
Includes Sun and Moon times and rain image live from BOM.

Check out Ararat Weather on Facebook, Twitter and Google +

Help support ongoing costs by checking out the ads





Follow @AraratWeather